<?xml version="1.0" encoding="utf-8"?>
<gpx xmlns:xsi="http://www.w3.org/2001/XMLSchema-instance" xmlns:xsd="http://www.w3.org/2001/XMLSchema" version="1.1" creator="Shapelink.com" xmlns="http://www.topografix.com/GPX/1/1" xmlns:gpxtpx="http://www.garmin.com/xmlschemas/TrackPointExtension/v1">
  <metadata>
    <name>Löpning 5.60 km, 2015-04-24</name>
    <desc></desc>
    <author><name>Stefan Östlund</name></author> 
    <time>2015-04-24T18:36:32Z</time>
  </metadata>
  <trk>
    <name>Löpning 5.60 km, 2015-04-24</name>
    <trkseg>
      <trkpt lat="59.984765098686" lon="15.827446132521">
        <ele>77.6</ele>
        <time>2015-04-24T18:36:32Z</time>
      </trkpt>
      <trkpt lat="59.984782616857" lon="15.827186545078">
        <ele>77</ele>
        <time>2015-04-24T18:36:38Z</time>
      </trkpt>
      <trkpt lat="59.984776078975" lon="15.827166009423">
        <ele>77</ele>
        <time>2015-04-24T18:36:39Z</time>
      </trkpt>
      <trkpt lat="59.984722602453" lon="15.827109012503">
        <ele>76.8</ele>
        <time>2015-04-24T18:36:42Z</time>
      </trkpt>
      <trkpt lat="59.984674406528" lon="15.826989738066">
        <ele>76.4</ele>
        <time>2015-04-24T18:36:47Z</time>
      </trkpt>
      <trkpt lat="59.984632497028" lon="15.826911367301">
        <ele>76.2</ele>
        <time>2015-04-24T18:36:50Z</time>
      </trkpt>
      <trkpt lat="59.984555886462" lon="15.826862333186">
        <ele>75.8</ele>
        <time>2015-04-24T18:36:54Z</time>
      </trkpt>
      <trkpt lat="59.984538368291" lon="15.826850682345">
        <ele>75.6</ele>
        <time>2015-04-24T18:36:55Z</time>
      </trkpt>
      <trkpt lat="59.984437366396" lon="15.826742555835">
        <ele>75</ele>
        <time>2015-04-24T18:37:00Z</time>
      </trkpt>
      <trkpt lat="59.984416244008" lon="15.826698215584">
        <ele>75</ele>
        <time>2015-04-24T18:37:01Z</time>
      </trkpt>
      <trkpt lat="59.984395037801" lon="15.826656473722">
        <ele>74.8</ele>
        <time>2015-04-24T18:37:02Z</time>
      </trkpt>
      <trkpt lat="59.984380956209" lon="15.826630322194">
        <ele>74.6</ele>
        <time>2015-04-24T18:37:03Z</time>
      </trkpt>
      <trkpt lat="59.984274338441" lon="15.826522698598">
        <ele>73.8</ele>
        <time>2015-04-24T18:37:08Z</time>
      </trkpt>
      <trkpt lat="59.984251958768" lon="15.826509287558">
        <ele>73.8</ele>
        <time>2015-04-24T18:37:09Z</time>
      </trkpt>
      <trkpt lat="59.984137210557" lon="15.826416416106">
        <ele>73.4</ele>
        <time>2015-04-24T18:37:14Z</time>
      </trkpt>
      <trkpt lat="59.984005950003" lon="15.826368723095">
        <ele>73</ele>
        <time>2015-04-24T18:37:20Z</time>
      </trkpt>
      <trkpt lat="59.983988683289" lon="15.82638087685">
        <ele>73</ele>
        <time>2015-04-24T18:37:21Z</time>
      </trkpt>
      <trkpt lat="59.983915425483" lon="15.826467964791">
        <ele>73.2</ele>
        <time>2015-04-24T18:37:25Z</time>
      </trkpt>
      <trkpt lat="59.983842502953" lon="15.826589502341">
        <ele>73.6</ele>
        <time>2015-04-24T18:37:29Z</time>
      </trkpt>
      <trkpt lat="59.983804868222" lon="15.826648175641">
        <ele>73.6</ele>
        <time>2015-04-24T18:37:31Z</time>
      </trkpt>
      <trkpt lat="59.983700094472" lon="15.826817657659">
        <ele>73.6</ele>
        <time>2015-04-24T18:37:37Z</time>
      </trkpt>
      <trkpt lat="59.983623064811" lon="15.82696844804">
        <ele>73.6</ele>
        <time>2015-04-24T18:37:42Z</time>
      </trkpt>
      <trkpt lat="59.983528265522" lon="15.82713608604">
        <ele>73.4</ele>
        <time>2015-04-24T18:37:47Z</time>
      </trkpt>
      <trkpt lat="59.983426593075" lon="15.827363151711">
        <ele>73.2</ele>
        <time>2015-04-24T18:37:53Z</time>
      </trkpt>
      <trkpt lat="59.983329614492" lon="15.827567502433">
        <ele>73</ele>
        <time>2015-04-24T18:37:59Z</time>
      </trkpt>
      <trkpt lat="59.983274964504" lon="15.827679652255">
        <ele>72.8</ele>
        <time>2015-04-24T18:38:02Z</time>
      </trkpt>
      <trkpt lat="59.983174046428" lon="15.827926750667">
        <ele>72.6</ele>
        <time>2015-04-24T18:38:09Z</time>
      </trkpt>
      <trkpt lat="59.983079750053" lon="15.828202096082">
        <ele>72</ele>
        <time>2015-04-24T18:38:16Z</time>
      </trkpt>
      <trkpt lat="59.983011772844" lon="15.828392029936">
        <ele>71.6</ele>
        <time>2015-04-24T18:38:21Z</time>
      </trkpt>
      <trkpt lat="59.982953937734" lon="15.828543574688">
        <ele>71.4</ele>
        <time>2015-04-24T18:38:25Z</time>
      </trkpt>
      <trkpt lat="59.982879506462" lon="15.828781620648">
        <ele>71</ele>
        <time>2015-04-24T18:38:31Z</time>
      </trkpt>
      <trkpt lat="59.982841620274" lon="15.828907600605">
        <ele>70.6</ele>
        <time>2015-04-24T18:38:34Z</time>
      </trkpt>
      <trkpt lat="59.982786467372" lon="15.829110777861">
        <ele>70.4</ele>
        <time>2015-04-24T18:38:39Z</time>
      </trkpt>
      <trkpt lat="59.982701810182" lon="15.829440018893">
        <ele>70</ele>
        <time>2015-04-24T18:38:47Z</time>
      </trkpt>
      <trkpt lat="59.982690746074" lon="15.829486622257">
        <ele>69.8</ele>
        <time>2015-04-24T18:38:48Z</time>
      </trkpt>
      <trkpt lat="59.982655458275" lon="15.829671275514">
        <ele>69.6</ele>
        <time>2015-04-24T18:38:52Z</time>
      </trkpt>
      <trkpt lat="59.982620589571" lon="15.829851402545">
        <ele>69.6</ele>
        <time>2015-04-24T18:38:56Z</time>
      </trkpt>
      <trkpt lat="59.982564598479" lon="15.830165975252">
        <ele>69.2</ele>
        <time>2015-04-24T18:39:03Z</time>
      </trkpt>
      <trkpt lat="59.982485054248" lon="15.830486582927">
        <ele>69</ele>
        <time>2015-04-24T18:39:11Z</time>
      </trkpt>
      <trkpt lat="59.982456136693" lon="15.830722030498">
        <ele>68.6</ele>
        <time>2015-04-24T18:39:16Z</time>
      </trkpt>
      <trkpt lat="59.98244213892" lon="15.830856559993">
        <ele>68.6</ele>
        <time>2015-04-24T18:39:19Z</time>
      </trkpt>
      <trkpt lat="59.982425878034" lon="15.830998717017">
        <ele>68.6</ele>
        <time>2015-04-24T18:39:22Z</time>
      </trkpt>
      <trkpt lat="59.982386902199" lon="15.83132703604">
        <ele>68.6</ele>
        <time>2015-04-24T18:39:29Z</time>
      </trkpt>
      <trkpt lat="59.98236083449" lon="15.83165895928">
        <ele>68.6</ele>
        <time>2015-04-24T18:39:36Z</time>
      </trkpt>
      <trkpt lat="59.982333509496" lon="15.832017034048">
        <ele>68.6</ele>
        <time>2015-04-24T18:39:43Z</time>
      </trkpt>
      <trkpt lat="59.982330743469" lon="15.832058859729">
        <ele>68.6</ele>
        <time>2015-04-24T18:39:44Z</time>
      </trkpt>
      <trkpt lat="59.982315907506" lon="15.832417018316">
        <ele>68.8</ele>
        <time>2015-04-24T18:39:51Z</time>
      </trkpt>
      <trkpt lat="59.98230802852" lon="15.832762520234">
        <ele>69</ele>
        <time>2015-04-24T18:39:58Z</time>
      </trkpt>
      <trkpt lat="59.982300568629" lon="15.83306292753">
        <ele>69.2</ele>
        <time>2015-04-24T18:40:04Z</time>
      </trkpt>
      <trkpt lat="59.982294952756" lon="15.833335423099">
        <ele>69.6</ele>
        <time>2015-04-24T18:40:10Z</time>
      </trkpt>
      <trkpt lat="59.982293024919" lon="15.833415721701">
        <ele>69.8</ele>
        <time>2015-04-24T18:40:12Z</time>
      </trkpt>
      <trkpt lat="59.982295288032" lon="15.833508760791">
        <ele>70</ele>
        <time>2015-04-24T18:40:14Z</time>
        <extensions><gpxtpx:TrackPointExtension><gpxtpx:hr>88</gpxtpx:hr></gpxtpx:TrackPointExtension></extensions>
      </trkpt>
      <trkpt lat="59.982295204213" lon="15.833553101042">
        <ele>69.8</ele>
        <time>2015-04-24T18:40:15Z</time>
        <extensions><gpxtpx:TrackPointExtension><gpxtpx:hr>97</gpxtpx:hr></gpxtpx:TrackPointExtension></extensions>
      </trkpt>
      <trkpt lat="59.982295120394" lon="15.833574810163">
        <ele>69.8</ele>
        <time>2015-04-24T18:40:16Z</time>
        <extensions><gpxtpx:TrackPointExtension><gpxtpx:hr>97</gpxtpx:hr></gpxtpx:TrackPointExtension></extensions>
      </trkpt>
      <trkpt lat="59.98229377929" lon="15.833685283605">
        <ele>70</ele>
        <time>2015-04-24T18:40:18Z</time>
        <extensions><gpxtpx:TrackPointExtension><gpxtpx:hr>104</gpxtpx:hr></gpxtpx:TrackPointExtension></extensions>
      </trkpt>
      <trkpt lat="59.982294366023" lon="15.833728198933">
        <ele>69.8</ele>
        <time>2015-04-24T18:40:19Z</time>
        <extensions><gpxtpx:TrackPointExtension><gpxtpx:hr>116</gpxtpx:hr></gpxtpx:TrackPointExtension></extensions>
      </trkpt>
      <trkpt lat="59.982297299688" lon="15.833759044325">
        <ele>70</ele>
        <time>2015-04-24T18:40:20Z</time>
        <extensions><gpxtpx:TrackPointExtension><gpxtpx:hr>125</gpxtpx:hr></gpxtpx:TrackPointExtension></extensions>
      </trkpt>
      <trkpt lat="59.982303250837" lon="15.833814364865">
        <ele>70</ele>
        <time>2015-04-24T18:40:21Z</time>
        <extensions><gpxtpx:TrackPointExtension><gpxtpx:hr>132</gpxtpx:hr></gpxtpx:TrackPointExtension></extensions>
      </trkpt>
      <trkpt lat="59.982306938873" lon="15.833862812247">
        <ele>70</ele>
        <time>2015-04-24T18:40:22Z</time>
        <extensions><gpxtpx:TrackPointExtension><gpxtpx:hr>139</gpxtpx:hr></gpxtpx:TrackPointExtension></extensions>
      </trkpt>
      <trkpt lat="59.982309118167" lon="15.833909164154">
        <ele>70</ele>
        <time>2015-04-24T18:40:23Z</time>
        <extensions><gpxtpx:TrackPointExtension><gpxtpx:hr>144</gpxtpx:hr></gpxtpx:TrackPointExtension></extensions>
      </trkpt>
      <trkpt lat="59.982310291633" lon="15.833945625419">
        <ele>70</ele>
        <time>2015-04-24T18:40:24Z</time>
        <extensions><gpxtpx:TrackPointExtension><gpxtpx:hr>148</gpxtpx:hr></gpxtpx:TrackPointExtension></extensions>
      </trkpt>
      <trkpt lat="59.982315656049" lon="15.834048974246">
        <ele>70</ele>
        <time>2015-04-24T18:40:26Z</time>
        <extensions><gpxtpx:TrackPointExtension><gpxtpx:hr>150</gpxtpx:hr></gpxtpx:TrackPointExtension></extensions>
      </trkpt>
      <trkpt lat="59.982320936646" lon="15.834242931412">
        <ele>70.2</ele>
        <time>2015-04-24T18:40:30Z</time>
        <extensions><gpxtpx:TrackPointExtension><gpxtpx:hr>155</gpxtpx:hr></gpxtpx:TrackPointExtension></extensions>
      </trkpt>
      <trkpt lat="59.982323618854" lon="15.834430099239">
        <ele>70.2</ele>
        <time>2015-04-24T18:40:34Z</time>
        <extensions><gpxtpx:TrackPointExtension><gpxtpx:hr>158</gpxtpx:hr></gpxtpx:TrackPointExtension></extensions>
      </trkpt>
      <trkpt lat="59.982338622455" lon="15.83481642101">
        <ele>70.4</ele>
        <time>2015-04-24T18:40:42Z</time>
        <extensions><gpxtpx:TrackPointExtension><gpxtpx:hr>157</gpxtpx:hr></gpxtpx:TrackPointExtension></extensions>
      </trkpt>
      <trkpt lat="59.982351446762" lon="15.83514499149">
        <ele>70.4</ele>
        <time>2015-04-24T18:40:49Z</time>
        <extensions><gpxtpx:TrackPointExtension><gpxtpx:hr>158</gpxtpx:hr></gpxtpx:TrackPointExtension></extensions>
      </trkpt>
      <trkpt lat="59.982370725132" lon="15.83537465555">
        <ele>70.6</ele>
        <time>2015-04-24T18:40:54Z</time>
        <extensions><gpxtpx:TrackPointExtension><gpxtpx:hr>158</gpxtpx:hr></gpxtpx:TrackPointExtension></extensions>
      </trkpt>
      <trkpt lat="59.982382208335" lon="15.835516812574">
        <ele>70.6</ele>
        <time>2015-04-24T18:40:57Z</time>
        <extensions><gpxtpx:TrackPointExtension><gpxtpx:hr>157</gpxtpx:hr></gpxtpx:TrackPointExtension></extensions>
      </trkpt>
      <trkpt lat="59.982394110633" lon="15.835717642898">
        <ele>70.6</ele>
        <time>2015-04-24T18:41:01Z</time>
        <extensions><gpxtpx:TrackPointExtension><gpxtpx:hr>160</gpxtpx:hr></gpxtpx:TrackPointExtension></extensions>
      </trkpt>
      <trkpt lat="59.982397882488" lon="15.835771789972">
        <ele>70.6</ele>
        <time>2015-04-24T18:41:02Z</time>
        <extensions><gpxtpx:TrackPointExtension><gpxtpx:hr>159</gpxtpx:hr></gpxtpx:TrackPointExtension></extensions>
      </trkpt>
      <trkpt lat="59.982427973509" lon="15.836153250241">
        <ele>70.8</ele>
        <time>2015-04-24T18:41:10Z</time>
        <extensions><gpxtpx:TrackPointExtension><gpxtpx:hr>159</gpxtpx:hr></gpxtpx:TrackPointExtension></extensions>
      </trkpt>
      <trkpt lat="59.982442809472" lon="15.836432283692">
        <ele>70.8</ele>
        <time>2015-04-24T18:41:16Z</time>
        <extensions><gpxtpx:TrackPointExtension><gpxtpx:hr>160</gpxtpx:hr></gpxtpx:TrackPointExtension></extensions>
      </trkpt>
      <trkpt lat="59.982451861924" lon="15.836747862227">
        <ele>70.6</ele>
        <time>2015-04-24T18:41:22Z</time>
        <extensions><gpxtpx:TrackPointExtension><gpxtpx:hr>159</gpxtpx:hr></gpxtpx:TrackPointExtension></extensions>
      </trkpt>
      <trkpt lat="59.982463680403" lon="15.836960175754">
        <ele>70.6</ele>
        <time>2015-04-24T18:41:27Z</time>
        <extensions><gpxtpx:TrackPointExtension><gpxtpx:hr>159</gpxtpx:hr></gpxtpx:TrackPointExtension></extensions>
      </trkpt>
      <trkpt lat="59.982458735082" lon="15.837143655545">
        <ele>70.6</ele>
        <time>2015-04-24T18:41:31Z</time>
        <extensions><gpxtpx:TrackPointExtension><gpxtpx:hr>160</gpxtpx:hr></gpxtpx:TrackPointExtension></extensions>
      </trkpt>
      <trkpt lat="59.982486730628" lon="15.837400393142">
        <ele>70.4</ele>
        <time>2015-04-24T18:41:37Z</time>
        <extensions><gpxtpx:TrackPointExtension><gpxtpx:hr>161</gpxtpx:hr></gpxtpx:TrackPointExtension></extensions>
      </trkpt>
      <trkpt lat="59.982508523568" lon="15.837664674449">
        <ele>70.6</ele>
        <time>2015-04-24T18:41:43Z</time>
        <extensions><gpxtpx:TrackPointExtension><gpxtpx:hr>159</gpxtpx:hr></gpxtpx:TrackPointExtension></extensions>
      </trkpt>
      <trkpt lat="59.982527969576" lon="15.837973798921">
        <ele>70.6</ele>
        <time>2015-04-24T18:41:50Z</time>
        <extensions><gpxtpx:TrackPointExtension><gpxtpx:hr>160</gpxtpx:hr></gpxtpx:TrackPointExtension></extensions>
      </trkpt>
      <trkpt lat="59.982562251547" lon="15.838352325525">
        <ele>70.4</ele>
        <time>2015-04-24T18:41:58Z</time>
        <extensions><gpxtpx:TrackPointExtension><gpxtpx:hr>160</gpxtpx:hr></gpxtpx:TrackPointExtension></extensions>
      </trkpt>
      <trkpt lat="59.98256702923" lon="15.838400018536">
        <ele>70.2</ele>
        <time>2015-04-24T18:41:59Z</time>
        <extensions><gpxtpx:TrackPointExtension><gpxtpx:hr>160</gpxtpx:hr></gpxtpx:TrackPointExtension></extensions>
      </trkpt>
      <trkpt lat="59.982620254295" lon="15.838787597592">
        <ele>70.2</ele>
        <time>2015-04-24T18:42:07Z</time>
        <extensions><gpxtpx:TrackPointExtension><gpxtpx:hr>158</gpxtpx:hr></gpxtpx:TrackPointExtension></extensions>
      </trkpt>
      <trkpt lat="59.982623774693" lon="15.838823388305">
        <ele>70.2</ele>
        <time>2015-04-24T18:42:08Z</time>
        <extensions><gpxtpx:TrackPointExtension><gpxtpx:hr>157</gpxtpx:hr></gpxtpx:TrackPointExtension></extensions>
      </trkpt>
      <trkpt lat="59.982652692248" lon="15.839177607399">
        <ele>70</ele>
        <time>2015-04-24T18:42:15Z</time>
        <extensions><gpxtpx:TrackPointExtension><gpxtpx:hr>159</gpxtpx:hr></gpxtpx:TrackPointExtension></extensions>
      </trkpt>
      <trkpt lat="59.982660822691" lon="15.839275507991">
        <ele>70</ele>
        <time>2015-04-24T18:42:17Z</time>
        <extensions><gpxtpx:TrackPointExtension><gpxtpx:hr>159</gpxtpx:hr></gpxtpx:TrackPointExtension></extensions>
      </trkpt>
      <trkpt lat="59.98269443411" lon="15.839681862503">
        <ele>70</ele>
        <time>2015-04-24T18:42:25Z</time>
        <extensions><gpxtpx:TrackPointExtension><gpxtpx:hr>158</gpxtpx:hr></gpxtpx:TrackPointExtension></extensions>
      </trkpt>
      <trkpt lat="59.982721591466" lon="15.839966679465">
        <ele>69.6</ele>
        <time>2015-04-24T18:42:31Z</time>
        <extensions><gpxtpx:TrackPointExtension><gpxtpx:hr>154</gpxtpx:hr></gpxtpx:TrackPointExtension></extensions>
      </trkpt>
      <trkpt lat="59.982733493764" lon="15.84004169747">
        <ele>69.6</ele>
        <time>2015-04-24T18:42:33Z</time>
        <extensions><gpxtpx:TrackPointExtension><gpxtpx:hr>151</gpxtpx:hr></gpxtpx:TrackPointExtension></extensions>
      </trkpt>
      <trkpt lat="59.982736846524" lon="15.840058042175">
        <ele>69.6</ele>
        <time>2015-04-24T18:42:34Z</time>
        <extensions><gpxtpx:TrackPointExtension><gpxtpx:hr>147</gpxtpx:hr></gpxtpx:TrackPointExtension></extensions>
      </trkpt>
      <trkpt lat="59.98273969637" lon="15.840062233125">
        <ele>69.8</ele>
        <time>2015-04-24T18:42:35Z</time>
        <extensions><gpxtpx:TrackPointExtension><gpxtpx:hr>144</gpxtpx:hr></gpxtpx:TrackPointExtension></extensions>
      </trkpt>
      <trkpt lat="59.982736259791" lon="15.84006935774">
        <ele>69.8</ele>
        <time>2015-04-24T18:42:37Z</time>
        <extensions><gpxtpx:TrackPointExtension><gpxtpx:hr>141</gpxtpx:hr></gpxtpx:TrackPointExtension></extensions>
      </trkpt>
      <trkpt lat="59.982733745221" lon="15.840085786264">
        <ele>69.8</ele>
        <time>2015-04-24T18:42:38Z</time>
        <extensions><gpxtpx:TrackPointExtension><gpxtpx:hr>139</gpxtpx:hr></gpxtpx:TrackPointExtension></extensions>
      </trkpt>
      <trkpt lat="59.982735170144" lon="15.840230541677">
        <ele>69.6</ele>
        <time>2015-04-24T18:42:41Z</time>
        <extensions><gpxtpx:TrackPointExtension><gpxtpx:hr>144</gpxtpx:hr></gpxtpx:TrackPointExtension></extensions>
      </trkpt>
      <trkpt lat="59.982739444913" lon="15.84028561076">
        <ele>69.4</ele>
        <time>2015-04-24T18:42:42Z</time>
        <extensions><gpxtpx:TrackPointExtension><gpxtpx:hr>144</gpxtpx:hr></gpxtpx:TrackPointExtension></extensions>
      </trkpt>
      <trkpt lat="59.982742713854" lon="15.840340260748">
        <ele>69.6</ele>
        <time>2015-04-24T18:42:43Z</time>
        <extensions><gpxtpx:TrackPointExtension><gpxtpx:hr>146</gpxtpx:hr></gpxtpx:TrackPointExtension></extensions>
      </trkpt>
      <trkpt lat="59.982710694996" lon="15.840548886239">
        <ele>69.4</ele>
        <time>2015-04-24T18:42:48Z</time>
        <extensions><gpxtpx:TrackPointExtension><gpxtpx:hr>146</gpxtpx:hr></gpxtpx:TrackPointExtension></extensions>
      </trkpt>
      <trkpt lat="59.982641209045" lon="15.84076757001">
        <ele>69.2</ele>
        <time>2015-04-24T18:42:53Z</time>
        <extensions><gpxtpx:TrackPointExtension><gpxtpx:hr>149</gpxtpx:hr></gpxtpx:TrackPointExtension></extensions>
      </trkpt>
      <trkpt lat="59.982599634821" lon="15.840935627105">
        <ele>68.6</ele>
        <time>2015-04-24T18:42:57Z</time>
        <extensions><gpxtpx:TrackPointExtension><gpxtpx:hr>149</gpxtpx:hr></gpxtpx:TrackPointExtension></extensions>
      </trkpt>
      <trkpt lat="59.98258295484" lon="15.841010142196">
        <ele>68.4</ele>
        <time>2015-04-24T18:42:59Z</time>
        <extensions><gpxtpx:TrackPointExtension><gpxtpx:hr>151</gpxtpx:hr></gpxtpx:TrackPointExtension></extensions>
      </trkpt>
      <trkpt lat="59.982556635674" lon="15.841229664157">
        <ele>68.2</ele>
        <time>2015-04-24T18:43:04Z</time>
        <extensions><gpxtpx:TrackPointExtension><gpxtpx:hr>150</gpxtpx:hr></gpxtpx:TrackPointExtension></extensions>
      </trkpt>
      <trkpt lat="59.982559317882" lon="15.841524287942">
        <ele>68</ele>
        <time>2015-04-24T18:43:10Z</time>
        <extensions><gpxtpx:TrackPointExtension><gpxtpx:hr>150</gpxtpx:hr></gpxtpx:TrackPointExtension></extensions>
      </trkpt>
      <trkpt lat="59.982598545174" lon="15.841791167638">
        <ele>67.8</ele>
        <time>2015-04-24T18:43:16Z</time>
        <extensions><gpxtpx:TrackPointExtension><gpxtpx:hr>152</gpxtpx:hr></gpxtpx:TrackPointExtension></extensions>
      </trkpt>
      <trkpt lat="59.982612962042" lon="15.841853193698">
        <ele>67.8</ele>
        <time>2015-04-24T18:43:17Z</time>
        <extensions><gpxtpx:TrackPointExtension><gpxtpx:hr>148</gpxtpx:hr></gpxtpx:TrackPointExtension></extensions>
      </trkpt>
      <trkpt lat="59.982683705278" lon="15.842091994029">
        <ele>67.6</ele>
        <time>2015-04-24T18:43:24Z</time>
        <extensions><gpxtpx:TrackPointExtension><gpxtpx:hr>149</gpxtpx:hr></gpxtpx:TrackPointExtension></extensions>
      </trkpt>
      <trkpt lat="59.982697116318" lon="15.84218662568">
        <ele>67.4</ele>
        <time>2015-04-24T18:43:26Z</time>
        <extensions><gpxtpx:TrackPointExtension><gpxtpx:hr>150</gpxtpx:hr></gpxtpx:TrackPointExtension></extensions>
      </trkpt>
      <trkpt lat="59.982700469078" lon="15.842323669745">
        <ele>67.2</ele>
        <time>2015-04-24T18:43:29Z</time>
        <extensions><gpxtpx:TrackPointExtension><gpxtpx:hr>151</gpxtpx:hr></gpxtpx:TrackPointExtension></extensions>
      </trkpt>
      <trkpt lat="59.98270197782" lon="15.842366417435">
        <ele>67.4</ele>
        <time>2015-04-24T18:43:30Z</time>
        <extensions><gpxtpx:TrackPointExtension><gpxtpx:hr>148</gpxtpx:hr></gpxtpx:TrackPointExtension></extensions>
      </trkpt>
      <trkpt lat="59.982709186254" lon="15.842540425679">
        <ele>67.2</ele>
        <time>2015-04-24T18:43:34Z</time>
        <extensions><gpxtpx:TrackPointExtension><gpxtpx:hr>149</gpxtpx:hr></gpxtpx:TrackPointExtension></extensions>
      </trkpt>
      <trkpt lat="59.982718322525" lon="15.842657017908">
        <ele>67.2</ele>
        <time>2015-04-24T18:43:37Z</time>
        <extensions><gpxtpx:TrackPointExtension><gpxtpx:hr>147</gpxtpx:hr></gpxtpx:TrackPointExtension></extensions>
      </trkpt>
      <trkpt lat="59.982718657801" lon="15.842708315136">
        <ele>67.4</ele>
        <time>2015-04-24T18:43:38Z</time>
        <extensions><gpxtpx:TrackPointExtension><gpxtpx:hr>147</gpxtpx:hr></gpxtpx:TrackPointExtension></extensions>
      </trkpt>
      <trkpt lat="59.982717735792" lon="15.842967567303">
        <ele>67.4</ele>
        <time>2015-04-24T18:43:44Z</time>
        <extensions><gpxtpx:TrackPointExtension><gpxtpx:hr>147</gpxtpx:hr></gpxtpx:TrackPointExtension></extensions>
      </trkpt>
      <trkpt lat="59.982721842923" lon="15.843209804213">
        <ele>67.4</ele>
        <time>2015-04-24T18:43:49Z</time>
        <extensions><gpxtpx:TrackPointExtension><gpxtpx:hr>149</gpxtpx:hr></gpxtpx:TrackPointExtension></extensions>
      </trkpt>
      <trkpt lat="59.982733661402" lon="15.84334081331">
        <ele>67.4</ele>
        <time>2015-04-24T18:43:52Z</time>
        <extensions><gpxtpx:TrackPointExtension><gpxtpx:hr>149</gpxtpx:hr></gpxtpx:TrackPointExtension></extensions>
      </trkpt>
      <trkpt lat="59.982737014162" lon="15.843453885141">
        <ele>67.4</ele>
        <time>2015-04-24T18:43:54Z</time>
        <extensions><gpxtpx:TrackPointExtension><gpxtpx:hr>149</gpxtpx:hr></gpxtpx:TrackPointExtension></extensions>
      </trkpt>
      <trkpt lat="59.982733661402" lon="15.843644154271">
        <ele>67.2</ele>
        <time>2015-04-24T18:43:58Z</time>
        <extensions><gpxtpx:TrackPointExtension><gpxtpx:hr>149</gpxtpx:hr></gpxtpx:TrackPointExtension></extensions>
      </trkpt>
      <trkpt lat="59.982738606723" lon="15.843722776493">
        <ele>67.2</ele>
        <time>2015-04-24T18:44:00Z</time>
        <extensions><gpxtpx:TrackPointExtension><gpxtpx:hr>146</gpxtpx:hr></gpxtpx:TrackPointExtension></extensions>
      </trkpt>
      <trkpt lat="59.982732068841" lon="15.843772145884">
        <ele>67.2</ele>
        <time>2015-04-24T18:44:01Z</time>
        <extensions><gpxtpx:TrackPointExtension><gpxtpx:hr>146</gpxtpx:hr></gpxtpx:TrackPointExtension></extensions>
      </trkpt>
      <trkpt lat="59.982720418" lon="15.843911285424">
        <ele>67.2</ele>
        <time>2015-04-24T18:44:04Z</time>
        <extensions><gpxtpx:TrackPointExtension><gpxtpx:hr>146</gpxtpx:hr></gpxtpx:TrackPointExtension></extensions>
      </trkpt>
      <trkpt lat="59.982698373603" lon="15.844077666139">
        <ele>67.2</ele>
        <time>2015-04-24T18:44:07Z</time>
        <extensions><gpxtpx:TrackPointExtension><gpxtpx:hr>148</gpxtpx:hr></gpxtpx:TrackPointExtension></extensions>
      </trkpt>
      <trkpt lat="59.982669707505" lon="15.844275646617">
        <ele>67.2</ele>
        <time>2015-04-24T18:44:12Z</time>
        <extensions><gpxtpx:TrackPointExtension><gpxtpx:hr>148</gpxtpx:hr></gpxtpx:TrackPointExtension></extensions>
      </trkpt>
      <trkpt lat="59.982663588718" lon="15.844333397908">
        <ele>67</ele>
        <time>2015-04-24T18:44:13Z</time>
        <extensions><gpxtpx:TrackPointExtension><gpxtpx:hr>144</gpxtpx:hr></gpxtpx:TrackPointExtension></extensions>
      </trkpt>
      <trkpt lat="59.982651434963" lon="15.844504723944">
        <ele>67.2</ele>
        <time>2015-04-24T18:44:17Z</time>
        <extensions><gpxtpx:TrackPointExtension><gpxtpx:hr>145</gpxtpx:hr></gpxtpx:TrackPointExtension></extensions>
      </trkpt>
      <trkpt lat="59.982648668936" lon="15.844551243489">
        <ele>67.2</ele>
        <time>2015-04-24T18:44:18Z</time>
        <extensions><gpxtpx:TrackPointExtension><gpxtpx:hr>145</gpxtpx:hr></gpxtpx:TrackPointExtension></extensions>
      </trkpt>
      <trkpt lat="59.982667863487" lon="15.844694238703">
        <ele>67.2</ele>
        <time>2015-04-24T18:44:21Z</time>
        <extensions><gpxtpx:TrackPointExtension><gpxtpx:hr>141</gpxtpx:hr></gpxtpx:TrackPointExtension></extensions>
      </trkpt>
      <trkpt lat="59.982679514328" lon="15.844748888691">
        <ele>67.4</ele>
        <time>2015-04-24T18:44:22Z</time>
        <extensions><gpxtpx:TrackPointExtension><gpxtpx:hr>141</gpxtpx:hr></gpxtpx:TrackPointExtension></extensions>
      </trkpt>
      <trkpt lat="59.982720585638" lon="15.84490403766">
        <ele>67.4</ele>
        <time>2015-04-24T18:44:26Z</time>
        <extensions><gpxtpx:TrackPointExtension><gpxtpx:hr>146</gpxtpx:hr></gpxtpx:TrackPointExtension></extensions>
      </trkpt>
      <trkpt lat="59.982740283103" lon="15.84493337431">
        <ele>67.6</ele>
        <time>2015-04-24T18:44:27Z</time>
        <extensions><gpxtpx:TrackPointExtension><gpxtpx:hr>146</gpxtpx:hr></gpxtpx:TrackPointExtension></extensions>
      </trkpt>
      <trkpt lat="59.98273801999" lon="15.844958268553">
        <ele>67.6</ele>
        <time>2015-04-24T18:44:28Z</time>
        <extensions><gpxtpx:TrackPointExtension><gpxtpx:hr>145</gpxtpx:hr></gpxtpx:TrackPointExtension></extensions>
      </trkpt>
      <trkpt lat="59.98275226922" lon="15.845033454196">
        <ele>67.6</ele>
        <time>2015-04-24T18:44:30Z</time>
        <extensions><gpxtpx:TrackPointExtension><gpxtpx:hr>145</gpxtpx:hr></gpxtpx:TrackPointExtension></extensions>
      </trkpt>
      <trkpt lat="59.982784204259" lon="15.845119033395">
        <ele>67.8</ele>
        <time>2015-04-24T18:44:33Z</time>
        <extensions><gpxtpx:TrackPointExtension><gpxtpx:hr>144</gpxtpx:hr></gpxtpx:TrackPointExtension></extensions>
      </trkpt>
      <trkpt lat="59.982801219516" lon="15.845135964833">
        <ele>67.8</ele>
        <time>2015-04-24T18:44:34Z</time>
        <extensions><gpxtpx:TrackPointExtension><gpxtpx:hr>146</gpxtpx:hr></gpxtpx:TrackPointExtension></extensions>
      </trkpt>
      <trkpt lat="59.982841033541" lon="15.845287844861">
        <ele>68</ele>
        <time>2015-04-24T18:44:38Z</time>
        <extensions><gpxtpx:TrackPointExtension><gpxtpx:hr>145</gpxtpx:hr></gpxtpx:TrackPointExtension></extensions>
      </trkpt>
      <trkpt lat="59.982839021885" lon="15.845337549528">
        <ele>68</ele>
        <time>2015-04-24T18:44:39Z</time>
        <extensions><gpxtpx:TrackPointExtension><gpxtpx:hr>148</gpxtpx:hr></gpxtpx:TrackPointExtension></extensions>
      </trkpt>
      <trkpt lat="59.982865927784" lon="15.845533183074">
        <ele>68.4</ele>
        <time>2015-04-24T18:44:43Z</time>
        <extensions><gpxtpx:TrackPointExtension><gpxtpx:hr>147</gpxtpx:hr></gpxtpx:TrackPointExtension></extensions>
      </trkpt>
      <trkpt lat="59.982862742662" lon="15.845734181036">
        <ele>68.2</ele>
        <time>2015-04-24T18:44:47Z</time>
        <extensions><gpxtpx:TrackPointExtension><gpxtpx:hr>148</gpxtpx:hr></gpxtpx:TrackPointExtension></extensions>
      </trkpt>
      <trkpt lat="59.982857462065" lon="15.845779527115">
        <ele>68.2</ele>
        <time>2015-04-24T18:44:48Z</time>
        <extensions><gpxtpx:TrackPointExtension><gpxtpx:hr>147</gpxtpx:hr></gpxtpx:TrackPointExtension></extensions>
      </trkpt>
      <trkpt lat="59.982893588054" lon="15.846018662722">
        <ele>67.6</ele>
        <time>2015-04-24T18:44:53Z</time>
        <extensions><gpxtpx:TrackPointExtension><gpxtpx:hr>149</gpxtpx:hr></gpxtpx:TrackPointExtension></extensions>
      </trkpt>
      <trkpt lat="59.982957122856" lon="15.846198705934">
        <ele>66.8</ele>
        <time>2015-04-24T18:44:58Z</time>
        <extensions><gpxtpx:TrackPointExtension><gpxtpx:hr>147</gpxtpx:hr></gpxtpx:TrackPointExtension></extensions>
      </trkpt>
      <trkpt lat="59.982959218331" lon="15.846263162745">
        <ele>66.6</ele>
        <time>2015-04-24T18:44:59Z</time>
        <extensions><gpxtpx:TrackPointExtension><gpxtpx:hr>147</gpxtpx:hr></gpxtpx:TrackPointExtension></extensions>
      </trkpt>
      <trkpt lat="59.982970533896" lon="15.846354776912">
        <ele>66.4</ele>
        <time>2015-04-24T18:45:01Z</time>
        <extensions><gpxtpx:TrackPointExtension><gpxtpx:hr>147</gpxtpx:hr></gpxtpx:TrackPointExtension></extensions>
      </trkpt>
      <trkpt lat="59.982988974076" lon="15.846460053576">
        <ele>66.2</ele>
        <time>2015-04-24T18:45:03Z</time>
        <extensions><gpxtpx:TrackPointExtension><gpxtpx:hr>147</gpxtpx:hr></gpxtpx:TrackPointExtension></extensions>
      </trkpt>
      <trkpt lat="59.982992494474" lon="15.846492742986">
        <ele>66.2</ele>
        <time>2015-04-24T18:45:04Z</time>
        <extensions><gpxtpx:TrackPointExtension><gpxtpx:hr>147</gpxtpx:hr></gpxtpx:TrackPointExtension></extensions>
      </trkpt>
      <trkpt lat="59.983022250219" lon="15.846665493945">
        <ele>66</ele>
        <time>2015-04-24T18:45:07Z</time>
        <extensions><gpxtpx:TrackPointExtension><gpxtpx:hr>147</gpxtpx:hr></gpxtpx:TrackPointExtension></extensions>
      </trkpt>
      <trkpt lat="59.983029207196" lon="15.846699859735">
        <ele>66</ele>
        <time>2015-04-24T18:45:08Z</time>
        <extensions><gpxtpx:TrackPointExtension><gpxtpx:hr>147</gpxtpx:hr></gpxtpx:TrackPointExtension></extensions>
      </trkpt>
      <trkpt lat="59.983067093384" lon="15.846926171035">
        <ele>66.4</ele>
        <time>2015-04-24T18:45:13Z</time>
        <extensions><gpxtpx:TrackPointExtension><gpxtpx:hr>146</gpxtpx:hr></gpxtpx:TrackPointExtension></extensions>
      </trkpt>
      <trkpt lat="59.98308419246" lon="15.847031866794">
        <ele>66.4</ele>
        <time>2015-04-24T18:45:15Z</time>
        <extensions><gpxtpx:TrackPointExtension><gpxtpx:hr>145</gpxtpx:hr></gpxtpx:TrackPointExtension></extensions>
      </trkpt>
      <trkpt lat="59.983087796677" lon="15.847189278876">
        <ele>66.6</ele>
        <time>2015-04-24T18:45:18Z</time>
        <extensions><gpxtpx:TrackPointExtension><gpxtpx:hr>146</gpxtpx:hr></gpxtpx:TrackPointExtension></extensions>
      </trkpt>
      <trkpt lat="59.983095424206" lon="15.847376446703">
        <ele>66.4</ele>
        <time>2015-04-24T18:45:21Z</time>
        <extensions><gpxtpx:TrackPointExtension><gpxtpx:hr>146</gpxtpx:hr></gpxtpx:TrackPointExtension></extensions>
      </trkpt>
      <trkpt lat="59.983102381183" lon="15.847484489394">
        <ele>66.4</ele>
        <time>2015-04-24T18:45:23Z</time>
        <extensions><gpxtpx:TrackPointExtension><gpxtpx:hr>146</gpxtpx:hr></gpxtpx:TrackPointExtension></extensions>
      </trkpt>
      <trkpt lat="59.983124257942" lon="15.847680374397">
        <ele>66.4</ele>
        <time>2015-04-24T18:45:27Z</time>
        <extensions><gpxtpx:TrackPointExtension><gpxtpx:hr>147</gpxtpx:hr></gpxtpx:TrackPointExtension></extensions>
      </trkpt>
      <trkpt lat="59.98312610196" lon="15.847719601689">
        <ele>66.2</ele>
        <time>2015-04-24T18:45:28Z</time>
        <extensions><gpxtpx:TrackPointExtension><gpxtpx:hr>147</gpxtpx:hr></gpxtpx:TrackPointExtension></extensions>
      </trkpt>
      <trkpt lat="59.983164993976" lon="15.847954127251">
        <ele>66.2</ele>
        <time>2015-04-24T18:45:33Z</time>
        <extensions><gpxtpx:TrackPointExtension><gpxtpx:hr>147</gpxtpx:hr></gpxtpx:TrackPointExtension></extensions>
      </trkpt>
      <trkpt lat="59.983167927641" lon="15.848059655372">
        <ele>66.2</ele>
        <time>2015-04-24T18:45:35Z</time>
        <extensions><gpxtpx:TrackPointExtension><gpxtpx:hr>148</gpxtpx:hr></gpxtpx:TrackPointExtension></extensions>
      </trkpt>
      <trkpt lat="59.98315879137" lon="15.84817046409">
        <ele>66.2</ele>
        <time>2015-04-24T18:45:37Z</time>
        <extensions><gpxtpx:TrackPointExtension><gpxtpx:hr>148</gpxtpx:hr></gpxtpx:TrackPointExtension></extensions>
      </trkpt>
      <trkpt lat="59.983147643443" lon="15.848274902564">
        <ele>66</ele>
        <time>2015-04-24T18:45:40Z</time>
        <extensions><gpxtpx:TrackPointExtension><gpxtpx:hr>148</gpxtpx:hr></gpxtpx:TrackPointExtension></extensions>
      </trkpt>
      <trkpt lat="59.983149655099" lon="15.848329552552">
        <ele>66</ele>
        <time>2015-04-24T18:45:41Z</time>
        <extensions><gpxtpx:TrackPointExtension><gpxtpx:hr>148</gpxtpx:hr></gpxtpx:TrackPointExtension></extensions>
      </trkpt>
      <trkpt lat="59.983149236004" lon="15.84845544869">
        <ele>65.8</ele>
        <time>2015-04-24T18:45:44Z</time>
        <extensions><gpxtpx:TrackPointExtension><gpxtpx:hr>148</gpxtpx:hr></gpxtpx:TrackPointExtension></extensions>
      </trkpt>
      <trkpt lat="59.98315124766" lon="15.84856106063">
        <ele>66</ele>
        <time>2015-04-24T18:45:46Z</time>
        <extensions><gpxtpx:TrackPointExtension><gpxtpx:hr>148</gpxtpx:hr></gpxtpx:TrackPointExtension></extensions>
      </trkpt>
      <trkpt lat="59.983187373649" lon="15.848760801307">
        <ele>65.8</ele>
        <time>2015-04-24T18:45:51Z</time>
        <extensions><gpxtpx:TrackPointExtension><gpxtpx:hr>148</gpxtpx:hr></gpxtpx:TrackPointExtension></extensions>
      </trkpt>
      <trkpt lat="59.983222326172" lon="15.848977892517">
        <ele>65.8</ele>
        <time>2015-04-24T18:45:56Z</time>
        <extensions><gpxtpx:TrackPointExtension><gpxtpx:hr>149</gpxtpx:hr></gpxtpx:TrackPointExtension></extensions>
      </trkpt>
      <trkpt lat="59.983231881538" lon="15.849024914976">
        <ele>65.8</ele>
        <time>2015-04-24T18:45:57Z</time>
        <extensions><gpxtpx:TrackPointExtension><gpxtpx:hr>149</gpxtpx:hr></gpxtpx:TrackPointExtension></extensions>
      </trkpt>
      <trkpt lat="59.983233306461" lon="15.849102782827">
        <ele>65.6</ele>
        <time>2015-04-24T18:45:59Z</time>
        <extensions><gpxtpx:TrackPointExtension><gpxtpx:hr>151</gpxtpx:hr></gpxtpx:TrackPointExtension></extensions>
      </trkpt>
      <trkpt lat="59.983234647565" lon="15.849146787802">
        <ele>65.8</ele>
        <time>2015-04-24T18:46:00Z</time>
        <extensions><gpxtpx:TrackPointExtension><gpxtpx:hr>151</gpxtpx:hr></gpxtpx:TrackPointExtension></extensions>
      </trkpt>
      <trkpt lat="59.983260547636" lon="15.849325406091">
        <ele>65.6</ele>
        <time>2015-04-24T18:46:04Z</time>
        <extensions><gpxtpx:TrackPointExtension><gpxtpx:hr>150</gpxtpx:hr></gpxtpx:TrackPointExtension></extensions>
      </trkpt>
      <trkpt lat="59.98331301833" lon="15.849469910047">
        <ele>65.8</ele>
        <time>2015-04-24T18:46:08Z</time>
        <extensions><gpxtpx:TrackPointExtension><gpxtpx:hr>150</gpxtpx:hr></gpxtpx:TrackPointExtension></extensions>
      </trkpt>
      <trkpt lat="59.983332799614" lon="15.849632183631">
        <ele>65.8</ele>
        <time>2015-04-24T18:46:12Z</time>
        <extensions><gpxtpx:TrackPointExtension><gpxtpx:hr>151</gpxtpx:hr></gpxtpx:TrackPointExtension></extensions>
      </trkpt>
      <trkpt lat="59.983345959197" lon="15.849683648497">
        <ele>65.8</ele>
        <time>2015-04-24T18:46:13Z</time>
        <extensions><gpxtpx:TrackPointExtension><gpxtpx:hr>150</gpxtpx:hr></gpxtpx:TrackPointExtension></extensions>
      </trkpt>
      <trkpt lat="59.983361968626" lon="15.849706195808">
        <ele>65.8</ele>
        <time>2015-04-24T18:46:14Z</time>
        <extensions><gpxtpx:TrackPointExtension><gpxtpx:hr>151</gpxtpx:hr></gpxtpx:TrackPointExtension></extensions>
      </trkpt>
      <trkpt lat="59.983396585873" lon="15.849792529378">
        <ele>65.8</ele>
        <time>2015-04-24T18:46:17Z</time>
        <extensions><gpxtpx:TrackPointExtension><gpxtpx:hr>151</gpxtpx:hr></gpxtpx:TrackPointExtension></extensions>
      </trkpt>
      <trkpt lat="59.983413182035" lon="15.849952875125">
        <ele>66.6</ele>
        <time>2015-04-24T18:46:21Z</time>
        <extensions><gpxtpx:TrackPointExtension><gpxtpx:hr>175</gpxtpx:hr></gpxtpx:TrackPointExtension></extensions>
      </trkpt>
      <trkpt lat="59.983417456804" lon="15.85000190924">
        <ele>66.6</ele>
        <time>2015-04-24T18:46:22Z</time>
        <extensions><gpxtpx:TrackPointExtension><gpxtpx:hr>175</gpxtpx:hr></gpxtpx:TrackPointExtension></extensions>
      </trkpt>
      <trkpt lat="59.983423743229" lon="15.850143647169">
        <ele>66.6</ele>
        <time>2015-04-24T18:46:25Z</time>
        <extensions><gpxtpx:TrackPointExtension><gpxtpx:hr>172</gpxtpx:hr></gpxtpx:TrackPointExtension></extensions>
      </trkpt>
      <trkpt lat="59.98343874683" lon="15.850222856124">
        <ele>66.6</ele>
        <time>2015-04-24T18:46:27Z</time>
        <extensions><gpxtpx:TrackPointExtension><gpxtpx:hr>169</gpxtpx:hr></gpxtpx:TrackPointExtension></extensions>
      </trkpt>
      <trkpt lat="59.983462132331" lon="15.850295191921">
        <ele>66.6</ele>
        <time>2015-04-24T18:46:29Z</time>
        <extensions><gpxtpx:TrackPointExtension><gpxtpx:hr>163</gpxtpx:hr></gpxtpx:TrackPointExtension></extensions>
      </trkpt>
      <trkpt lat="59.98346724529" lon="15.850328719521">
        <ele>66.6</ele>
        <time>2015-04-24T18:46:30Z</time>
        <extensions><gpxtpx:TrackPointExtension><gpxtpx:hr>163</gpxtpx:hr></gpxtpx:TrackPointExtension></extensions>
      </trkpt>
      <trkpt lat="59.983474034629" lon="15.850364258777">
        <ele>66.6</ele>
        <time>2015-04-24T18:46:31Z</time>
        <extensions><gpxtpx:TrackPointExtension><gpxtpx:hr>159</gpxtpx:hr></gpxtpx:TrackPointExtension></extensions>
      </trkpt>
      <trkpt lat="59.983497001035" lon="15.850432319805">
        <ele>66.6</ele>
        <time>2015-04-24T18:46:33Z</time>
        <extensions><gpxtpx:TrackPointExtension><gpxtpx:hr>156</gpxtpx:hr></gpxtpx:TrackPointExtension></extensions>
      </trkpt>
      <trkpt lat="59.983500605252" lon="15.850473977848">
        <ele>66.6</ele>
        <time>2015-04-24T18:46:34Z</time>
        <extensions><gpxtpx:TrackPointExtension><gpxtpx:hr>155</gpxtpx:hr></gpxtpx:TrackPointExtension></extensions>
      </trkpt>
      <trkpt lat="59.983520302717" lon="15.850600293081">
        <ele>66.8</ele>
        <time>2015-04-24T18:46:37Z</time>
        <extensions><gpxtpx:TrackPointExtension><gpxtpx:hr>155</gpxtpx:hr></gpxtpx:TrackPointExtension></extensions>
      </trkpt>
      <trkpt lat="59.983503455098" lon="15.850764829778">
        <ele>67.2</ele>
        <time>2015-04-24T18:46:41Z</time>
        <extensions><gpxtpx:TrackPointExtension><gpxtpx:hr>154</gpxtpx:hr></gpxtpx:TrackPointExtension></extensions>
      </trkpt>
      <trkpt lat="59.983510076799" lon="15.850886367328">
        <ele>67.2</ele>
        <time>2015-04-24T18:46:44Z</time>
        <extensions><gpxtpx:TrackPointExtension><gpxtpx:hr>154</gpxtpx:hr></gpxtpx:TrackPointExtension></extensions>
      </trkpt>
      <trkpt lat="59.983525583314" lon="15.850940430583">
        <ele>66.8</ele>
        <time>2015-04-24T18:46:45Z</time>
        <extensions><gpxtpx:TrackPointExtension><gpxtpx:hr>154</gpxtpx:hr></gpxtpx:TrackPointExtension></extensions>
      </trkpt>
      <trkpt lat="59.983523906934" lon="15.85098845887">
        <ele>66.6</ele>
        <time>2015-04-24T18:46:46Z</time>
        <extensions><gpxtpx:TrackPointExtension><gpxtpx:hr>153</gpxtpx:hr></gpxtpx:TrackPointExtension></extensions>
      </trkpt>
      <trkpt lat="59.983551315747" lon="15.851220469862">
        <ele>66</ele>
        <time>2015-04-24T18:46:52Z</time>
        <extensions><gpxtpx:TrackPointExtension><gpxtpx:hr>151</gpxtpx:hr></gpxtpx:TrackPointExtension></extensions>
      </trkpt>
      <trkpt lat="59.983563218045" lon="15.851462287677">
        <ele>65.8</ele>
        <time>2015-04-24T18:46:57Z</time>
        <extensions><gpxtpx:TrackPointExtension><gpxtpx:hr>151</gpxtpx:hr></gpxtpx:TrackPointExtension></extensions>
      </trkpt>
      <trkpt lat="59.983561038751" lon="15.851587597082">
        <ele>65.6</ele>
        <time>2015-04-24T18:47:00Z</time>
        <extensions><gpxtpx:TrackPointExtension><gpxtpx:hr>151</gpxtpx:hr></gpxtpx:TrackPointExtension></extensions>
      </trkpt>
      <trkpt lat="59.983539497268" lon="15.851658591775">
        <ele>65.6</ele>
        <time>2015-04-24T18:47:01Z</time>
        <extensions><gpxtpx:TrackPointExtension><gpxtpx:hr>152</gpxtpx:hr></gpxtpx:TrackPointExtension></extensions>
      </trkpt>
      <trkpt lat="59.983531702101" lon="15.851820949178">
        <ele>65.4</ele>
        <time>2015-04-24T18:47:04Z</time>
        <extensions><gpxtpx:TrackPointExtension><gpxtpx:hr>151</gpxtpx:hr></gpxtpx:TrackPointExtension></extensions>
      </trkpt>
      <trkpt lat="59.983543352942" lon="15.851884232523">
        <ele>65.4</ele>
        <time>2015-04-24T18:47:05Z</time>
        <extensions><gpxtpx:TrackPointExtension><gpxtpx:hr>152</gpxtpx:hr></gpxtpx:TrackPointExtension></extensions>
      </trkpt>
      <trkpt lat="59.983576629085" lon="15.852063521364">
        <ele>64.8</ele>
        <time>2015-04-24T18:47:09Z</time>
        <extensions><gpxtpx:TrackPointExtension><gpxtpx:hr>151</gpxtpx:hr></gpxtpx:TrackPointExtension></extensions>
      </trkpt>
      <trkpt lat="59.983585178623" lon="15.85210492795">
        <ele>65</ele>
        <time>2015-04-24T18:47:10Z</time>
        <extensions><gpxtpx:TrackPointExtension><gpxtpx:hr>151</gpxtpx:hr></gpxtpx:TrackPointExtension></extensions>
      </trkpt>
      <trkpt lat="59.983588279926" lon="15.852162260146">
        <ele>65</ele>
        <time>2015-04-24T18:47:12Z</time>
        <extensions><gpxtpx:TrackPointExtension><gpxtpx:hr>151</gpxtpx:hr></gpxtpx:TrackPointExtension></extensions>
      </trkpt>
      <trkpt lat="59.983592722333" lon="15.852254796322">
        <ele>65.2</ele>
        <time>2015-04-24T18:47:14Z</time>
        <extensions><gpxtpx:TrackPointExtension><gpxtpx:hr>152</gpxtpx:hr></gpxtpx:TrackPointExtension></extensions>
      </trkpt>
      <trkpt lat="59.98361225216" lon="15.852484460382">
        <ele>65.4</ele>
        <time>2015-04-24T18:47:19Z</time>
        <extensions><gpxtpx:TrackPointExtension><gpxtpx:hr>152</gpxtpx:hr></gpxtpx:TrackPointExtension></extensions>
      </trkpt>
      <trkpt lat="59.983628764503" lon="15.852671628209">
        <ele>65.4</ele>
        <time>2015-04-24T18:47:23Z</time>
        <extensions><gpxtpx:TrackPointExtension><gpxtpx:hr>152</gpxtpx:hr></gpxtpx:TrackPointExtension></extensions>
      </trkpt>
      <trkpt lat="59.983630440883" lon="15.852707670379">
        <ele>65.4</ele>
        <time>2015-04-24T18:47:24Z</time>
        <extensions><gpxtpx:TrackPointExtension><gpxtpx:hr>153</gpxtpx:hr></gpxtpx:TrackPointExtension></extensions>
      </trkpt>
      <trkpt lat="59.983636894946" lon="15.852803056401">
        <ele>65.4</ele>
        <time>2015-04-24T18:47:26Z</time>
        <extensions><gpxtpx:TrackPointExtension><gpxtpx:hr>152</gpxtpx:hr></gpxtpx:TrackPointExtension></extensions>
      </trkpt>
      <trkpt lat="59.983651311814" lon="15.852871955619">
        <ele>65.6</ele>
        <time>2015-04-24T18:47:28Z</time>
        <extensions><gpxtpx:TrackPointExtension><gpxtpx:hr>152</gpxtpx:hr></gpxtpx:TrackPointExtension></extensions>
      </trkpt>
      <trkpt lat="59.983672518021" lon="15.853049316623">
        <ele>65.8</ele>
        <time>2015-04-24T18:47:32Z</time>
        <extensions><gpxtpx:TrackPointExtension><gpxtpx:hr>152</gpxtpx:hr></gpxtpx:TrackPointExtension></extensions>
      </trkpt>
      <trkpt lat="59.983678972084" lon="15.853112851425">
        <ele>66</ele>
        <time>2015-04-24T18:47:33Z</time>
        <extensions><gpxtpx:TrackPointExtension><gpxtpx:hr>152</gpxtpx:hr></gpxtpx:TrackPointExtension></extensions>
      </trkpt>
      <trkpt lat="59.983679391179" lon="15.853186695964">
        <ele>66</ele>
        <time>2015-04-24T18:47:35Z</time>
        <extensions><gpxtpx:TrackPointExtension><gpxtpx:hr>152</gpxtpx:hr></gpxtpx:TrackPointExtension></extensions>
      </trkpt>
      <trkpt lat="59.983679642636" lon="15.853219636831">
        <ele>66</ele>
        <time>2015-04-24T18:47:36Z</time>
        <extensions><gpxtpx:TrackPointExtension><gpxtpx:hr>152</gpxtpx:hr></gpxtpx:TrackPointExtension></extensions>
      </trkpt>
      <trkpt lat="59.98368685107" lon="15.853421556802">
        <ele>66.2</ele>
        <time>2015-04-24T18:47:41Z</time>
        <extensions><gpxtpx:TrackPointExtension><gpxtpx:hr>153</gpxtpx:hr></gpxtpx:TrackPointExtension></extensions>
      </trkpt>
      <trkpt lat="59.983679810274" lon="15.853528928941">
        <ele>66.4</ele>
        <time>2015-04-24T18:47:43Z</time>
        <extensions><gpxtpx:TrackPointExtension><gpxtpx:hr>154</gpxtpx:hr></gpxtpx:TrackPointExtension></extensions>
      </trkpt>
      <trkpt lat="59.983684252681" lon="15.85361283176">
        <ele>66.6</ele>
        <time>2015-04-24T18:47:45Z</time>
        <extensions><gpxtpx:TrackPointExtension><gpxtpx:hr>154</gpxtpx:hr></gpxtpx:TrackPointExtension></extensions>
      </trkpt>
      <trkpt lat="59.983678636808" lon="15.853660021857">
        <ele>66.4</ele>
        <time>2015-04-24T18:47:46Z</time>
        <extensions><gpxtpx:TrackPointExtension><gpxtpx:hr>154</gpxtpx:hr></gpxtpx:TrackPointExtension></extensions>
      </trkpt>
      <trkpt lat="59.983632284901" lon="15.853912568504">
        <ele>66</ele>
        <time>2015-04-24T18:47:51Z</time>
        <extensions><gpxtpx:TrackPointExtension><gpxtpx:hr>154</gpxtpx:hr></gpxtpx:TrackPointExtension></extensions>
      </trkpt>
      <trkpt lat="59.983571097031" lon="15.854170814843">
        <ele>66</ele>
        <time>2015-04-24T18:47:57Z</time>
        <extensions><gpxtpx:TrackPointExtension><gpxtpx:hr>153</gpxtpx:hr></gpxtpx:TrackPointExtension></extensions>
      </trkpt>
      <trkpt lat="59.983566486986" lon="15.85423560693">
        <ele>65.8</ele>
        <time>2015-04-24T18:47:59Z</time>
        <extensions><gpxtpx:TrackPointExtension><gpxtpx:hr>153</gpxtpx:hr></gpxtpx:TrackPointExtension></extensions>
      </trkpt>
      <trkpt lat="59.983542430933" lon="15.854308361822">
        <ele>65.8</ele>
        <time>2015-04-24T18:48:01Z</time>
        <extensions><gpxtpx:TrackPointExtension><gpxtpx:hr>153</gpxtpx:hr></gpxtpx:TrackPointExtension></extensions>
      </trkpt>
      <trkpt lat="59.983506053487" lon="15.854392599917">
        <ele>65.8</ele>
        <time>2015-04-24T18:48:04Z</time>
        <extensions><gpxtpx:TrackPointExtension><gpxtpx:hr>154</gpxtpx:hr></gpxtpx:TrackPointExtension></extensions>
      </trkpt>
      <trkpt lat="59.983483925271" lon="15.854446244077">
        <ele>65.6</ele>
        <time>2015-04-24T18:48:05Z</time>
        <extensions><gpxtpx:TrackPointExtension><gpxtpx:hr>154</gpxtpx:hr></gpxtpx:TrackPointExtension></extensions>
      </trkpt>
      <trkpt lat="59.983459869218" lon="15.854497541305">
        <ele>65.4</ele>
        <time>2015-04-24T18:48:07Z</time>
        <extensions><gpxtpx:TrackPointExtension><gpxtpx:hr>155</gpxtpx:hr></gpxtpx:TrackPointExtension></extensions>
      </trkpt>
      <trkpt lat="59.983427682722" lon="15.854551436922">
        <ele>65.4</ele>
        <time>2015-04-24T18:48:09Z</time>
        <extensions><gpxtpx:TrackPointExtension><gpxtpx:hr>155</gpxtpx:hr></gpxtpx:TrackPointExtension></extensions>
      </trkpt>
      <trkpt lat="59.983342606437" lon="15.85470499333">
        <ele>65.2</ele>
        <time>2015-04-24T18:48:14Z</time>
        <extensions><gpxtpx:TrackPointExtension><gpxtpx:hr>156</gpxtpx:hr></gpxtpx:TrackPointExtension></extensions>
      </trkpt>
      <trkpt lat="59.983293488503" lon="15.854822172292">
        <ele>65.4</ele>
        <time>2015-04-24T18:48:17Z</time>
        <extensions><gpxtpx:TrackPointExtension><gpxtpx:hr>157</gpxtpx:hr></gpxtpx:TrackPointExtension></extensions>
      </trkpt>
      <trkpt lat="59.983259541808" lon="15.854944799489">
        <ele>65.8</ele>
        <time>2015-04-24T18:48:20Z</time>
        <extensions><gpxtpx:TrackPointExtension><gpxtpx:hr>156</gpxtpx:hr></gpxtpx:TrackPointExtension></extensions>
      </trkpt>
      <trkpt lat="59.983219392507" lon="15.855179995603">
        <ele>65.8</ele>
        <time>2015-04-24T18:48:25Z</time>
        <extensions><gpxtpx:TrackPointExtension><gpxtpx:hr>156</gpxtpx:hr></gpxtpx:TrackPointExtension></extensions>
      </trkpt>
      <trkpt lat="59.983219643964" lon="15.855316536754">
        <ele>65.6</ele>
        <time>2015-04-24T18:48:28Z</time>
        <extensions><gpxtpx:TrackPointExtension><gpxtpx:hr>156</gpxtpx:hr></gpxtpx:TrackPointExtension></extensions>
      </trkpt>
      <trkpt lat="59.98323339028" lon="15.855439080132">
        <ele>65.6</ele>
        <time>2015-04-24T18:48:30Z</time>
        <extensions><gpxtpx:TrackPointExtension><gpxtpx:hr>155</gpxtpx:hr></gpxtpx:TrackPointExtension></extensions>
      </trkpt>
      <trkpt lat="59.983216039747" lon="15.855527509177">
        <ele>65.4</ele>
        <time>2015-04-24T18:48:32Z</time>
        <extensions><gpxtpx:TrackPointExtension><gpxtpx:hr>155</gpxtpx:hr></gpxtpx:TrackPointExtension></extensions>
      </trkpt>
      <trkpt lat="59.983215285376" lon="15.855601940449">
        <ele>65.4</ele>
        <time>2015-04-24T18:48:33Z</time>
        <extensions><gpxtpx:TrackPointExtension><gpxtpx:hr>155</gpxtpx:hr></gpxtpx:TrackPointExtension></extensions>
      </trkpt>
      <trkpt lat="59.98321243553" lon="15.855845267006">
        <ele>65.4</ele>
        <time>2015-04-24T18:48:38Z</time>
        <extensions><gpxtpx:TrackPointExtension><gpxtpx:hr>155</gpxtpx:hr></gpxtpx:TrackPointExtension></extensions>
      </trkpt>
      <trkpt lat="59.98321914105" lon="15.855918440993">
        <ele>65.6</ele>
        <time>2015-04-24T18:48:40Z</time>
        <extensions><gpxtpx:TrackPointExtension><gpxtpx:hr>154</gpxtpx:hr></gpxtpx:TrackPointExtension></extensions>
      </trkpt>
      <trkpt lat="59.983215453014" lon="15.855967391289">
        <ele>65.6</ele>
        <time>2015-04-24T18:48:41Z</time>
        <extensions><gpxtpx:TrackPointExtension><gpxtpx:hr>155</gpxtpx:hr></gpxtpx:TrackPointExtension></extensions>
      </trkpt>
      <trkpt lat="59.983233893194" lon="15.856166629052">
        <ele>66</ele>
        <time>2015-04-24T18:48:45Z</time>
        <extensions><gpxtpx:TrackPointExtension><gpxtpx:hr>154</gpxtpx:hr></gpxtpx:TrackPointExtension></extensions>
      </trkpt>
      <trkpt lat="59.98321243553" lon="15.85630090709">
        <ele>66.4</ele>
        <time>2015-04-24T18:48:49Z</time>
        <extensions><gpxtpx:TrackPointExtension><gpxtpx:hr>155</gpxtpx:hr></gpxtpx:TrackPointExtension></extensions>
      </trkpt>
      <trkpt lat="59.98316046775" lon="15.856428647246">
        <ele>66.4</ele>
        <time>2015-04-24T18:48:53Z</time>
        <extensions><gpxtpx:TrackPointExtension><gpxtpx:hr>155</gpxtpx:hr></gpxtpx:TrackPointExtension></extensions>
      </trkpt>
      <trkpt lat="59.983144039226" lon="15.856447255064">
        <ele>66.2</ele>
        <time>2015-04-24T18:48:54Z</time>
        <extensions><gpxtpx:TrackPointExtension><gpxtpx:hr>155</gpxtpx:hr></gpxtpx:TrackPointExtension></extensions>
      </trkpt>
      <trkpt lat="59.983063572986" lon="15.856529816779">
        <ele>66</ele>
        <time>2015-04-24T18:48:58Z</time>
        <extensions><gpxtpx:TrackPointExtension><gpxtpx:hr>156</gpxtpx:hr></gpxtpx:TrackPointExtension></extensions>
      </trkpt>
      <trkpt lat="59.983019903287" lon="15.856540797068">
        <ele>66.2</ele>
        <time>2015-04-24T18:49:00Z</time>
        <extensions><gpxtpx:TrackPointExtension><gpxtpx:hr>156</gpxtpx:hr></gpxtpx:TrackPointExtension></extensions>
      </trkpt>
      <trkpt lat="59.982968941335" lon="15.856572983564">
        <ele>66.2</ele>
        <time>2015-04-24T18:49:02Z</time>
        <extensions><gpxtpx:TrackPointExtension><gpxtpx:hr>156</gpxtpx:hr></gpxtpx:TrackPointExtension></extensions>
      </trkpt>
      <trkpt lat="59.982949411508" lon="15.856600308558">
        <ele>66.2</ele>
        <time>2015-04-24T18:49:04Z</time>
        <extensions><gpxtpx:TrackPointExtension><gpxtpx:hr>155</gpxtpx:hr></gpxtpx:TrackPointExtension></extensions>
      </trkpt>
      <trkpt lat="59.982941281065" lon="15.856636015452">
        <ele>66.2</ele>
        <time>2015-04-24T18:49:05Z</time>
        <extensions><gpxtpx:TrackPointExtension><gpxtpx:hr>156</gpxtpx:hr></gpxtpx:TrackPointExtension></extensions>
      </trkpt>
      <trkpt lat="59.982915045718" lon="15.856709021801">
        <ele>66.2</ele>
        <time>2015-04-24T18:49:08Z</time>
        <extensions><gpxtpx:TrackPointExtension><gpxtpx:hr>155</gpxtpx:hr></gpxtpx:TrackPointExtension></extensions>
      </trkpt>
      <trkpt lat="59.982899371565" lon="15.856745650704">
        <ele>66.4</ele>
        <time>2015-04-24T18:49:09Z</time>
        <extensions><gpxtpx:TrackPointExtension><gpxtpx:hr>155</gpxtpx:hr></gpxtpx:TrackPointExtension></extensions>
      </trkpt>
      <trkpt lat="59.982850756545" lon="15.856889987022">
        <ele>67.6</ele>
        <time>2015-04-24T18:49:14Z</time>
        <extensions><gpxtpx:TrackPointExtension><gpxtpx:hr>157</gpxtpx:hr></gpxtpx:TrackPointExtension></extensions>
      </trkpt>
      <trkpt lat="59.98283189727" lon="15.856928459943">
        <ele>67.8</ele>
        <time>2015-04-24T18:49:15Z</time>
        <extensions><gpxtpx:TrackPointExtension><gpxtpx:hr>157</gpxtpx:hr></gpxtpx:TrackPointExtension></extensions>
      </trkpt>
      <trkpt lat="59.982826197578" lon="15.856980762999">
        <ele>68.4</ele>
        <time>2015-04-24T18:49:17Z</time>
        <extensions><gpxtpx:TrackPointExtension><gpxtpx:hr>158</gpxtpx:hr></gpxtpx:TrackPointExtension></extensions>
      </trkpt>
      <trkpt lat="59.982813960004" lon="15.857035915901">
        <ele>68.8</ele>
        <time>2015-04-24T18:49:19Z</time>
        <extensions><gpxtpx:TrackPointExtension><gpxtpx:hr>158</gpxtpx:hr></gpxtpx:TrackPointExtension></extensions>
      </trkpt>
      <trkpt lat="59.982738187628" lon="15.857191651603">
        <ele>69.8</ele>
        <time>2015-04-24T18:49:24Z</time>
        <extensions><gpxtpx:TrackPointExtension><gpxtpx:hr>159</gpxtpx:hr></gpxtpx:TrackPointExtension></extensions>
      </trkpt>
      <trkpt lat="59.982723603122" lon="15.857222664633">
        <ele>69.8</ele>
        <time>2015-04-24T18:49:25Z</time>
        <extensions><gpxtpx:TrackPointExtension><gpxtpx:hr>159</gpxtpx:hr></gpxtpx:TrackPointExtension></extensions>
      </trkpt>
      <trkpt lat="59.982707426055" lon="15.857249570532">
        <ele>70</ele>
        <time>2015-04-24T18:49:26Z</time>
        <extensions><gpxtpx:TrackPointExtension><gpxtpx:hr>159</gpxtpx:hr></gpxtpx:TrackPointExtension></extensions>
      </trkpt>
      <trkpt lat="59.982651015868" lon="15.857313105334">
        <ele>70.2</ele>
        <time>2015-04-24T18:49:29Z</time>
        <extensions><gpxtpx:TrackPointExtension><gpxtpx:hr>159</gpxtpx:hr></gpxtpx:TrackPointExtension></extensions>
      </trkpt>
      <trkpt lat="59.982583206297" lon="15.857422489129">
        <ele>70.6</ele>
        <time>2015-04-24T18:49:33Z</time>
        <extensions><gpxtpx:TrackPointExtension><gpxtpx:hr>159</gpxtpx:hr></gpxtpx:TrackPointExtension></extensions>
      </trkpt>
      <trkpt lat="59.982510954319" lon="15.857567328361">
        <ele>70.6</ele>
        <time>2015-04-24T18:49:37Z</time>
        <extensions><gpxtpx:TrackPointExtension><gpxtpx:hr>158</gpxtpx:hr></gpxtpx:TrackPointExtension></extensions>
      </trkpt>
      <trkpt lat="59.98251589964" lon="15.85760596892">
        <ele>70.6</ele>
        <time>2015-04-24T18:49:38Z</time>
        <extensions><gpxtpx:TrackPointExtension><gpxtpx:hr>158</gpxtpx:hr></gpxtpx:TrackPointExtension></extensions>
      </trkpt>
      <trkpt lat="59.982501985686" lon="15.857688865911">
        <ele>71</ele>
        <time>2015-04-24T18:49:40Z</time>
        <extensions><gpxtpx:TrackPointExtension><gpxtpx:hr>157</gpxtpx:hr></gpxtpx:TrackPointExtension></extensions>
      </trkpt>
      <trkpt lat="59.982502153324" lon="15.857732451791">
        <ele>71.2</ele>
        <time>2015-04-24T18:49:41Z</time>
        <extensions><gpxtpx:TrackPointExtension><gpxtpx:hr>158</gpxtpx:hr></gpxtpx:TrackPointExtension></extensions>
      </trkpt>
      <trkpt lat="59.982506260455" lon="15.857770421798">
        <ele>71.4</ele>
        <time>2015-04-24T18:49:42Z</time>
        <extensions><gpxtpx:TrackPointExtension><gpxtpx:hr>158</gpxtpx:hr></gpxtpx:TrackPointExtension></extensions>
      </trkpt>
      <trkpt lat="59.982529729775" lon="15.857875782281">
        <ele>72.2</ele>
        <time>2015-04-24T18:49:45Z</time>
        <extensions><gpxtpx:TrackPointExtension><gpxtpx:hr>159</gpxtpx:hr></gpxtpx:TrackPointExtension></extensions>
      </trkpt>
      <trkpt lat="59.982523610988" lon="15.857907968777">
        <ele>72.4</ele>
        <time>2015-04-24T18:49:46Z</time>
        <extensions><gpxtpx:TrackPointExtension><gpxtpx:hr>159</gpxtpx:hr></gpxtpx:TrackPointExtension></extensions>
      </trkpt>
      <trkpt lat="59.982496369813" lon="15.858002935704">
        <ele>73.2</ele>
        <time>2015-04-24T18:49:48Z</time>
        <extensions><gpxtpx:TrackPointExtension><gpxtpx:hr>160</gpxtpx:hr></gpxtpx:TrackPointExtension></extensions>
      </trkpt>
      <trkpt lat="59.982467200801" lon="15.8581021774">
        <ele>74</ele>
        <time>2015-04-24T18:49:50Z</time>
        <extensions><gpxtpx:TrackPointExtension><gpxtpx:hr>161</gpxtpx:hr></gpxtpx:TrackPointExtension></extensions>
      </trkpt>
      <trkpt lat="59.982463764222" lon="15.858133693344">
        <ele>74.4</ele>
        <time>2015-04-24T18:49:51Z</time>
        <extensions><gpxtpx:TrackPointExtension><gpxtpx:hr>161</gpxtpx:hr></gpxtpx:TrackPointExtension></extensions>
      </trkpt>
      <trkpt lat="59.982458651263" lon="15.858163281451">
        <ele>74.6</ele>
        <time>2015-04-24T18:49:52Z</time>
        <extensions><gpxtpx:TrackPointExtension><gpxtpx:hr>161</gpxtpx:hr></gpxtpx:TrackPointExtension></extensions>
      </trkpt>
      <trkpt lat="59.982446832784" lon="15.858219356362">
        <ele>74.8</ele>
        <time>2015-04-24T18:49:53Z</time>
        <extensions><gpxtpx:TrackPointExtension><gpxtpx:hr>161</gpxtpx:hr></gpxtpx:TrackPointExtension></extensions>
      </trkpt>
      <trkpt lat="59.982437696513" lon="15.858262690785">
        <ele>75</ele>
        <time>2015-04-24T18:49:54Z</time>
        <extensions><gpxtpx:TrackPointExtension><gpxtpx:hr>162</gpxtpx:hr></gpxtpx:TrackPointExtension></extensions>
      </trkpt>
      <trkpt lat="59.982430068984" lon="15.858301834258">
        <ele>75.4</ele>
        <time>2015-04-24T18:49:55Z</time>
        <extensions><gpxtpx:TrackPointExtension><gpxtpx:hr>161</gpxtpx:hr></gpxtpx:TrackPointExtension></extensions>
      </trkpt>
      <trkpt lat="59.982387153656" lon="15.858512471405">
        <ele>76.2</ele>
        <time>2015-04-24T18:50:00Z</time>
        <extensions><gpxtpx:TrackPointExtension><gpxtpx:hr>162</gpxtpx:hr></gpxtpx:TrackPointExtension></extensions>
      </trkpt>
      <trkpt lat="59.982374077892" lon="15.858552536887">
        <ele>76.6</ele>
        <time>2015-04-24T18:50:01Z</time>
        <extensions><gpxtpx:TrackPointExtension><gpxtpx:hr>162</gpxtpx:hr></gpxtpx:TrackPointExtension></extensions>
      </trkpt>
      <trkpt lat="59.98235245259" lon="15.858681534328">
        <ele>77.6</ele>
        <time>2015-04-24T18:50:05Z</time>
        <extensions><gpxtpx:TrackPointExtension><gpxtpx:hr>163</gpxtpx:hr></gpxtpx:TrackPointExtension></extensions>
      </trkpt>
      <trkpt lat="59.982290007435" lon="15.858789325562">
        <ele>78</ele>
        <time>2015-04-24T18:50:09Z</time>
        <extensions><gpxtpx:TrackPointExtension><gpxtpx:hr>162</gpxtpx:hr></gpxtpx:TrackPointExtension></extensions>
      </trkpt>
      <trkpt lat="59.982257150387" lon="15.858858643875">
        <ele>78</ele>
        <time>2015-04-24T18:50:12Z</time>
        <extensions><gpxtpx:TrackPointExtension><gpxtpx:hr>161</gpxtpx:hr></gpxtpx:TrackPointExtension></extensions>
      </trkpt>
      <trkpt lat="59.982200824019" lon="15.858953359345">
        <ele>78.4</ele>
        <time>2015-04-24T18:50:15Z</time>
        <extensions><gpxtpx:TrackPointExtension><gpxtpx:hr>161</gpxtpx:hr></gpxtpx:TrackPointExtension></extensions>
      </trkpt>
      <trkpt lat="59.982086243446" lon="15.859039190001">
        <ele>78.4</ele>
        <time>2015-04-24T18:50:20Z</time>
        <extensions><gpxtpx:TrackPointExtension><gpxtpx:hr>160</gpxtpx:hr></gpxtpx:TrackPointExtension></extensions>
      </trkpt>
      <trkpt lat="59.982058918452" lon="15.859046901349">
        <ele>78.2</ele>
        <time>2015-04-24T18:50:21Z</time>
        <extensions><gpxtpx:TrackPointExtension><gpxtpx:hr>160</gpxtpx:hr></gpxtpx:TrackPointExtension></extensions>
      </trkpt>
      <trkpt lat="59.981948780286" lon="15.859117896042">
        <ele>77.8</ele>
        <time>2015-04-24T18:50:26Z</time>
        <extensions><gpxtpx:TrackPointExtension><gpxtpx:hr>161</gpxtpx:hr></gpxtpx:TrackPointExtension></extensions>
      </trkpt>
      <trkpt lat="59.981938554368" lon="15.859153351479">
        <ele>78</ele>
        <time>2015-04-24T18:50:27Z</time>
        <extensions><gpxtpx:TrackPointExtension><gpxtpx:hr>160</gpxtpx:hr></gpxtpx:TrackPointExtension></extensions>
      </trkpt>
      <trkpt lat="59.981890190805" lon="15.859287964793">
        <ele>77.8</ele>
        <time>2015-04-24T18:50:29Z</time>
        <extensions><gpxtpx:TrackPointExtension><gpxtpx:hr>160</gpxtpx:hr></gpxtpx:TrackPointExtension></extensions>
      </trkpt>
      <trkpt lat="59.98187049334" lon="15.859408245058">
        <ele>77.4</ele>
        <time>2015-04-24T18:50:31Z</time>
        <extensions><gpxtpx:TrackPointExtension><gpxtpx:hr>159</gpxtpx:hr></gpxtpx:TrackPointExtension></extensions>
      </trkpt>
      <trkpt lat="59.981861189431" lon="15.859515784835">
        <ele>76.6</ele>
        <time>2015-04-24T18:50:33Z</time>
        <extensions><gpxtpx:TrackPointExtension><gpxtpx:hr>159</gpxtpx:hr></gpxtpx:TrackPointExtension></extensions>
      </trkpt>
      <trkpt lat="59.981857249938" lon="15.859565238045">
        <ele>76.2</ele>
        <time>2015-04-24T18:50:34Z</time>
        <extensions><gpxtpx:TrackPointExtension><gpxtpx:hr>159</gpxtpx:hr></gpxtpx:TrackPointExtension></extensions>
      </trkpt>
      <trkpt lat="59.981831601324" lon="15.859775875192">
        <ele>75.2</ele>
        <time>2015-04-24T18:50:38Z</time>
        <extensions><gpxtpx:TrackPointExtension><gpxtpx:hr>159</gpxtpx:hr></gpxtpx:TrackPointExtension></extensions>
      </trkpt>
      <trkpt lat="59.981815759533" lon="15.859922809899">
        <ele>74.8</ele>
        <time>2015-04-24T18:50:41Z</time>
        <extensions><gpxtpx:TrackPointExtension><gpxtpx:hr>159</gpxtpx:hr></gpxtpx:TrackPointExtension></extensions>
      </trkpt>
      <trkpt lat="59.981765049038" lon="15.860253894949">
        <ele>74.6</ele>
        <time>2015-04-24T18:50:47Z</time>
        <extensions><gpxtpx:TrackPointExtension><gpxtpx:hr>157</gpxtpx:hr></gpxtpx:TrackPointExtension></extensions>
      </trkpt>
      <trkpt lat="59.981739484243" lon="15.860570395493">
        <ele>75</ele>
        <time>2015-04-24T18:50:53Z</time>
        <extensions><gpxtpx:TrackPointExtension><gpxtpx:hr>157</gpxtpx:hr></gpxtpx:TrackPointExtension></extensions>
      </trkpt>
      <trkpt lat="59.981700508408" lon="15.860938779998">
        <ele>75.2</ele>
        <time>2015-04-24T18:51:00Z</time>
        <extensions><gpxtpx:TrackPointExtension><gpxtpx:hr>157</gpxtpx:hr></gpxtpx:TrackPointExtension></extensions>
      </trkpt>
      <trkpt lat="59.981673853966" lon="15.861298698784">
        <ele>74.6</ele>
        <time>2015-04-24T18:51:07Z</time>
        <extensions><gpxtpx:TrackPointExtension><gpxtpx:hr>156</gpxtpx:hr></gpxtpx:TrackPointExtension></extensions>
      </trkpt>
      <trkpt lat="59.981630184267" lon="15.86165945576">
        <ele>74.8</ele>
        <time>2015-04-24T18:51:14Z</time>
        <extensions><gpxtpx:TrackPointExtension><gpxtpx:hr>155</gpxtpx:hr></gpxtpx:TrackPointExtension></extensions>
      </trkpt>
      <trkpt lat="59.981622053824" lon="15.861713854291">
        <ele>75</ele>
        <time>2015-04-24T18:51:15Z</time>
        <extensions><gpxtpx:TrackPointExtension><gpxtpx:hr>155</gpxtpx:hr></gpxtpx:TrackPointExtension></extensions>
      </trkpt>
      <trkpt lat="59.981582575075" lon="15.86208441809">
        <ele>74.8</ele>
        <time>2015-04-24T18:51:22Z</time>
        <extensions><gpxtpx:TrackPointExtension><gpxtpx:hr>156</gpxtpx:hr></gpxtpx:TrackPointExtension></extensions>
      </trkpt>
      <trkpt lat="59.981574779908" lon="15.862136302051">
        <ele>74.8</ele>
        <time>2015-04-24T18:51:23Z</time>
        <extensions><gpxtpx:TrackPointExtension><gpxtpx:hr>155</gpxtpx:hr></gpxtpx:TrackPointExtension></extensions>
      </trkpt>
      <trkpt lat="59.981516190427" lon="15.862476355734">
        <ele>74.6</ele>
        <time>2015-04-24T18:51:30Z</time>
        <extensions><gpxtpx:TrackPointExtension><gpxtpx:hr>156</gpxtpx:hr></gpxtpx:TrackPointExtension></extensions>
      </trkpt>
      <trkpt lat="59.981498923713" lon="15.862555983784">
        <ele>74.6</ele>
        <time>2015-04-24T18:51:31Z</time>
        <extensions><gpxtpx:TrackPointExtension><gpxtpx:hr>156</gpxtpx:hr></gpxtpx:TrackPointExtension></extensions>
      </trkpt>
      <trkpt lat="59.981405549347" lon="15.862898803494">
        <ele>74.2</ele>
        <time>2015-04-24T18:51:38Z</time>
        <extensions><gpxtpx:TrackPointExtension><gpxtpx:hr>157</gpxtpx:hr></gpxtpx:TrackPointExtension></extensions>
      </trkpt>
      <trkpt lat="59.981390964841" lon="15.86294021008">
        <ele>74.2</ele>
        <time>2015-04-24T18:51:39Z</time>
        <extensions><gpxtpx:TrackPointExtension><gpxtpx:hr>157</gpxtpx:hr></gpxtpx:TrackPointExtension></extensions>
      </trkpt>
      <trkpt lat="59.981319048139" lon="15.86315227215">
        <ele>74</ele>
        <time>2015-04-24T18:51:44Z</time>
        <extensions><gpxtpx:TrackPointExtension><gpxtpx:hr>156</gpxtpx:hr></gpxtpx:TrackPointExtension></extensions>
      </trkpt>
      <trkpt lat="59.981202036815" lon="15.863471454902">
        <ele>74</ele>
        <time>2015-04-24T18:51:51Z</time>
        <extensions><gpxtpx:TrackPointExtension><gpxtpx:hr>157</gpxtpx:hr></gpxtpx:TrackPointExtension></extensions>
      </trkpt>
      <trkpt lat="59.981190134517" lon="15.863508670538">
        <ele>74</ele>
        <time>2015-04-24T18:51:52Z</time>
        <extensions><gpxtpx:TrackPointExtension><gpxtpx:hr>156</gpxtpx:hr></gpxtpx:TrackPointExtension></extensions>
      </trkpt>
      <trkpt lat="59.98107505103" lon="15.863823075607">
        <ele>74</ele>
        <time>2015-04-24T18:51:59Z</time>
        <extensions><gpxtpx:TrackPointExtension><gpxtpx:hr>156</gpxtpx:hr></gpxtpx:TrackPointExtension></extensions>
      </trkpt>
      <trkpt lat="59.980980000284" lon="15.864054248409">
        <ele>74.2</ele>
        <time>2015-04-24T18:52:05Z</time>
        <extensions><gpxtpx:TrackPointExtension><gpxtpx:hr>156</gpxtpx:hr></gpxtpx:TrackPointExtension></extensions>
      </trkpt>
      <trkpt lat="59.98091495674" lon="15.864202775677">
        <ele>74.2</ele>
        <time>2015-04-24T18:52:10Z</time>
        <extensions><gpxtpx:TrackPointExtension><gpxtpx:hr>157</gpxtpx:hr></gpxtpx:TrackPointExtension></extensions>
      </trkpt>
      <trkpt lat="59.980810434447" lon="15.864349794203">
        <ele>74.8</ele>
        <time>2015-04-24T18:52:15Z</time>
        <extensions><gpxtpx:TrackPointExtension><gpxtpx:hr>156</gpxtpx:hr></gpxtpx:TrackPointExtension></extensions>
      </trkpt>
      <trkpt lat="59.980744720351" lon="15.864472253762">
        <ele>75.2</ele>
        <time>2015-04-24T18:52:19Z</time>
        <extensions><gpxtpx:TrackPointExtension><gpxtpx:hr>157</gpxtpx:hr></gpxtpx:TrackPointExtension></extensions>
      </trkpt>
      <trkpt lat="59.980734997347" lon="15.864499578756">
        <ele>75.2</ele>
        <time>2015-04-24T18:52:20Z</time>
        <extensions><gpxtpx:TrackPointExtension><gpxtpx:hr>157</gpxtpx:hr></gpxtpx:TrackPointExtension></extensions>
      </trkpt>
      <trkpt lat="59.980658051505" lon="15.864682890909">
        <ele>75.8</ele>
        <time>2015-04-24T18:52:25Z</time>
        <extensions><gpxtpx:TrackPointExtension><gpxtpx:hr>158</gpxtpx:hr></gpxtpx:TrackPointExtension></extensions>
      </trkpt>
      <trkpt lat="59.980659979342" lon="15.864825550847">
        <ele>76.2</ele>
        <time>2015-04-24T18:52:28Z</time>
        <extensions><gpxtpx:TrackPointExtension><gpxtpx:hr>158</gpxtpx:hr></gpxtpx:TrackPointExtension></extensions>
      </trkpt>
      <trkpt lat="59.980669031794" lon="15.864869052908">
        <ele>76.4</ele>
        <time>2015-04-24T18:52:29Z</time>
        <extensions><gpxtpx:TrackPointExtension><gpxtpx:hr>158</gpxtpx:hr></gpxtpx:TrackPointExtension></extensions>
      </trkpt>
      <trkpt lat="59.980750084767" lon="15.865051778328">
        <ele>77</ele>
        <time>2015-04-24T18:52:34Z</time>
        <extensions><gpxtpx:TrackPointExtension><gpxtpx:hr>157</gpxtpx:hr></gpxtpx:TrackPointExtension></extensions>
      </trkpt>
      <trkpt lat="59.980810099171" lon="15.865144314504">
        <ele>77.4</ele>
        <time>2015-04-24T18:52:37Z</time>
        <extensions><gpxtpx:TrackPointExtension><gpxtpx:hr>158</gpxtpx:hr></gpxtpx:TrackPointExtension></extensions>
      </trkpt>
      <trkpt lat="59.980840609287" lon="15.865206005288">
        <ele>77.4</ele>
        <time>2015-04-24T18:52:39Z</time>
        <extensions><gpxtpx:TrackPointExtension><gpxtpx:hr>158</gpxtpx:hr></gpxtpx:TrackPointExtension></extensions>
      </trkpt>
      <trkpt lat="59.980991734944" lon="15.86546400017">
        <ele>77.6</ele>
        <time>2015-04-24T18:52:47Z</time>
        <extensions><gpxtpx:TrackPointExtension><gpxtpx:hr>159</gpxtpx:hr></gpxtpx:TrackPointExtension></extensions>
      </trkpt>
      <trkpt lat="59.981012438237" lon="15.865500377616">
        <ele>77.8</ele>
        <time>2015-04-24T18:52:48Z</time>
        <extensions><gpxtpx:TrackPointExtension><gpxtpx:hr>159</gpxtpx:hr></gpxtpx:TrackPointExtension></extensions>
      </trkpt>
      <trkpt lat="59.981101705472" lon="15.865667428883">
        <ele>78.4</ele>
        <time>2015-04-24T18:52:53Z</time>
        <extensions><gpxtpx:TrackPointExtension><gpxtpx:hr>158</gpxtpx:hr></gpxtpx:TrackPointExtension></extensions>
      </trkpt>
      <trkpt lat="59.981133975787" lon="15.865717804102">
        <ele>78.8</ele>
        <time>2015-04-24T18:52:55Z</time>
        <extensions><gpxtpx:TrackPointExtension><gpxtpx:hr>158</gpxtpx:hr></gpxtpx:TrackPointExtension></extensions>
      </trkpt>
      <trkpt lat="59.981248472541" lon="15.865908911422">
        <ele>79.6</ele>
        <time>2015-04-24T18:53:01Z</time>
        <extensions><gpxtpx:TrackPointExtension><gpxtpx:hr>158</gpxtpx:hr></gpxtpx:TrackPointExtension></extensions>
      </trkpt>
      <trkpt lat="59.981363136933" lon="15.866194482755">
        <ele>80.4</ele>
        <time>2015-04-24T18:53:08Z</time>
        <extensions><gpxtpx:TrackPointExtension><gpxtpx:hr>159</gpxtpx:hr></gpxtpx:TrackPointExtension></extensions>
      </trkpt>
      <trkpt lat="59.981387528262" lon="15.866265561267">
        <ele>80.6</ele>
        <time>2015-04-24T18:53:10Z</time>
        <extensions><gpxtpx:TrackPointExtension><gpxtpx:hr>159</gpxtpx:hr></gpxtpx:TrackPointExtension></extensions>
      </trkpt>
      <trkpt lat="59.981477214592" lon="15.866452812913">
        <ele>80.8</ele>
        <time>2015-04-24T18:53:15Z</time>
        <extensions><gpxtpx:TrackPointExtension><gpxtpx:hr>159</gpxtpx:hr></gpxtpx:TrackPointExtension></extensions>
      </trkpt>
      <trkpt lat="59.981535971711" lon="15.86646144627">
        <ele>81</ele>
        <time>2015-04-24T18:53:17Z</time>
        <extensions><gpxtpx:TrackPointExtension><gpxtpx:hr>160</gpxtpx:hr></gpxtpx:TrackPointExtension></extensions>
      </trkpt>
      <trkpt lat="59.981574779908" lon="15.866430097964">
        <ele>81.4</ele>
        <time>2015-04-24T18:53:19Z</time>
        <extensions><gpxtpx:TrackPointExtension><gpxtpx:hr>160</gpxtpx:hr></gpxtpx:TrackPointExtension></extensions>
      </trkpt>
      <trkpt lat="59.981616773227" lon="15.866369832103">
        <ele>81.4</ele>
        <time>2015-04-24T18:53:21Z</time>
        <extensions><gpxtpx:TrackPointExtension><gpxtpx:hr>160</gpxtpx:hr></gpxtpx:TrackPointExtension></extensions>
      </trkpt>
      <trkpt lat="59.981637727977" lon="15.866340160177">
        <ele>81.8</ele>
        <time>2015-04-24T18:53:22Z</time>
        <extensions><gpxtpx:TrackPointExtension><gpxtpx:hr>159</gpxtpx:hr></gpxtpx:TrackPointExtension></extensions>
      </trkpt>
      <trkpt lat="59.981674859794" lon="15.86628458818">
        <ele>81.8</ele>
        <time>2015-04-24T18:53:24Z</time>
        <extensions><gpxtpx:TrackPointExtension><gpxtpx:hr>159</gpxtpx:hr></gpxtpx:TrackPointExtension></extensions>
      </trkpt>
      <trkpt lat="59.981790949109" lon="15.866086272426">
        <ele>82</ele>
        <time>2015-04-24T18:53:30Z</time>
        <extensions><gpxtpx:TrackPointExtension><gpxtpx:hr>160</gpxtpx:hr></gpxtpx:TrackPointExtension></extensions>
      </trkpt>
      <trkpt lat="59.981898488886" lon="15.865825343879">
        <ele>82.6</ele>
        <time>2015-04-24T18:53:37Z</time>
        <extensions><gpxtpx:TrackPointExtension><gpxtpx:hr>160</gpxtpx:hr></gpxtpx:TrackPointExtension></extensions>
      </trkpt>
      <trkpt lat="59.981985157732" lon="15.865586711186">
        <ele>82.6</ele>
        <time>2015-04-24T18:53:43Z</time>
        <extensions><gpxtpx:TrackPointExtension><gpxtpx:hr>160</gpxtpx:hr></gpxtpx:TrackPointExtension></extensions>
      </trkpt>
      <trkpt lat="59.982023965929" lon="15.865458300478">
        <ele>82.8</ele>
        <time>2015-04-24T18:53:46Z</time>
        <extensions><gpxtpx:TrackPointExtension><gpxtpx:hr>159</gpxtpx:hr></gpxtpx:TrackPointExtension></extensions>
      </trkpt>
      <trkpt lat="59.982085405256" lon="15.865249674987">
        <ele>83</ele>
        <time>2015-04-24T18:53:51Z</time>
        <extensions><gpxtpx:TrackPointExtension><gpxtpx:hr>159</gpxtpx:hr></gpxtpx:TrackPointExtension></extensions>
      </trkpt>
      <trkpt lat="59.982175845957" lon="15.864916075367">
        <ele>83.2</ele>
        <time>2015-04-24T18:53:58Z</time>
        <extensions><gpxtpx:TrackPointExtension><gpxtpx:hr>158</gpxtpx:hr></gpxtpx:TrackPointExtension></extensions>
      </trkpt>
      <trkpt lat="59.982201746028" lon="15.864825802304">
        <ele>83</ele>
        <time>2015-04-24T18:54:00Z</time>
        <extensions><gpxtpx:TrackPointExtension><gpxtpx:hr>159</gpxtpx:hr></gpxtpx:TrackPointExtension></extensions>
      </trkpt>
      <trkpt lat="59.982271902531" lon="15.864554815477">
        <ele>82.4</ele>
        <time>2015-04-24T18:54:06Z</time>
        <extensions><gpxtpx:TrackPointExtension><gpxtpx:hr>159</gpxtpx:hr></gpxtpx:TrackPointExtension></extensions>
      </trkpt>
      <trkpt lat="59.98234826164" lon="15.864233118155">
        <ele>82.4</ele>
        <time>2015-04-24T18:54:13Z</time>
        <extensions><gpxtpx:TrackPointExtension><gpxtpx:hr>159</gpxtpx:hr></gpxtpx:TrackPointExtension></extensions>
      </trkpt>
      <trkpt lat="59.982411377347" lon="15.864011835995">
        <ele>82.4</ele>
        <time>2015-04-24T18:54:18Z</time>
        <extensions><gpxtpx:TrackPointExtension><gpxtpx:hr>156</gpxtpx:hr></gpxtpx:TrackPointExtension></extensions>
      </trkpt>
      <trkpt lat="59.98242034598" lon="15.863970764685">
        <ele>82.4</ele>
        <time>2015-04-24T18:54:19Z</time>
        <extensions><gpxtpx:TrackPointExtension><gpxtpx:hr>156</gpxtpx:hr></gpxtpx:TrackPointExtension></extensions>
      </trkpt>
      <trkpt lat="59.982513049794" lon="15.863628950803">
        <ele>82.6</ele>
        <time>2015-04-24T18:54:27Z</time>
        <extensions><gpxtpx:TrackPointExtension><gpxtpx:hr>154</gpxtpx:hr></gpxtpx:TrackPointExtension></extensions>
      </trkpt>
      <trkpt lat="59.982527047567" lon="15.863582095982">
        <ele>82.4</ele>
        <time>2015-04-24T18:54:28Z</time>
        <extensions><gpxtpx:TrackPointExtension><gpxtpx:hr>154</gpxtpx:hr></gpxtpx:TrackPointExtension></extensions>
      </trkpt>
      <trkpt lat="59.982597874622" lon="15.863317982313">
        <ele>82.8</ele>
        <time>2015-04-24T18:54:34Z</time>
        <extensions><gpxtpx:TrackPointExtension><gpxtpx:hr>156</gpxtpx:hr></gpxtpx:TrackPointExtension></extensions>
      </trkpt>
      <trkpt lat="59.982693260644" lon="15.862949011075">
        <ele>82.2</ele>
        <time>2015-04-24T18:54:42Z</time>
        <extensions><gpxtpx:TrackPointExtension><gpxtpx:hr>157</gpxtpx:hr></gpxtpx:TrackPointExtension></extensions>
      </trkpt>
      <trkpt lat="59.982764506794" lon="15.862677102239">
        <ele>82.2</ele>
        <time>2015-04-24T18:54:48Z</time>
        <extensions><gpxtpx:TrackPointExtension><gpxtpx:hr>157</gpxtpx:hr></gpxtpx:TrackPointExtension></extensions>
      </trkpt>
      <trkpt lat="59.982830388528" lon="15.862419274995">
        <ele>82.4</ele>
        <time>2015-04-24T18:54:54Z</time>
        <extensions><gpxtpx:TrackPointExtension><gpxtpx:hr>158</gpxtpx:hr></gpxtpx:TrackPointExtension></extensions>
      </trkpt>
      <trkpt lat="59.982878584453" lon="15.862218612309">
        <ele>83</ele>
        <time>2015-04-24T18:54:59Z</time>
        <extensions><gpxtpx:TrackPointExtension><gpxtpx:hr>158</gpxtpx:hr></gpxtpx:TrackPointExtension></extensions>
      </trkpt>
      <trkpt lat="59.982933904993" lon="15.861939327401">
        <ele>84</ele>
        <time>2015-04-24T18:55:05Z</time>
        <extensions><gpxtpx:TrackPointExtension><gpxtpx:hr>157</gpxtpx:hr></gpxtpx:TrackPointExtension></extensions>
      </trkpt>
      <trkpt lat="59.982944885282" lon="15.861865734319">
        <ele>84</ele>
        <time>2015-04-24T18:55:07Z</time>
        <extensions><gpxtpx:TrackPointExtension><gpxtpx:hr>157</gpxtpx:hr></gpxtpx:TrackPointExtension></extensions>
      </trkpt>
      <trkpt lat="59.983011772844" lon="15.861579324796">
        <ele>84.2</ele>
        <time>2015-04-24T18:55:13Z</time>
        <extensions><gpxtpx:TrackPointExtension><gpxtpx:hr>157</gpxtpx:hr></gpxtpx:TrackPointExtension></extensions>
      </trkpt>
      <trkpt lat="59.98308167789" lon="15.861248994117">
        <ele>84.2</ele>
        <time>2015-04-24T18:55:20Z</time>
        <extensions><gpxtpx:TrackPointExtension><gpxtpx:hr>157</gpxtpx:hr></gpxtpx:TrackPointExtension></extensions>
      </trkpt>
      <trkpt lat="59.983149236004" lon="15.860967529915">
        <ele>83.6</ele>
        <time>2015-04-24T18:55:26Z</time>
        <extensions><gpxtpx:TrackPointExtension><gpxtpx:hr>157</gpxtpx:hr></gpxtpx:TrackPointExtension></extensions>
      </trkpt>
      <trkpt lat="59.98323339028" lon="15.860642815109">
        <ele>83</ele>
        <time>2015-04-24T18:55:33Z</time>
        <extensions><gpxtpx:TrackPointExtension><gpxtpx:hr>158</gpxtpx:hr></gpxtpx:TrackPointExtension></extensions>
      </trkpt>
      <trkpt lat="59.983271863201" lon="15.860502669741">
        <ele>82.8</ele>
        <time>2015-04-24T18:55:36Z</time>
        <extensions><gpxtpx:TrackPointExtension><gpxtpx:hr>157</gpxtpx:hr></gpxtpx:TrackPointExtension></extensions>
      </trkpt>
      <trkpt lat="59.983313521244" lon="15.860317681208">
        <ele>82.8</ele>
        <time>2015-04-24T18:55:40Z</time>
        <extensions><gpxtpx:TrackPointExtension><gpxtpx:hr>157</gpxtpx:hr></gpxtpx:TrackPointExtension></extensions>
      </trkpt>
      <trkpt lat="59.983373703286" lon="15.860068319683">
        <ele>81.6</ele>
        <time>2015-04-24T18:55:45Z</time>
        <extensions><gpxtpx:TrackPointExtension><gpxtpx:hr>157</gpxtpx:hr></gpxtpx:TrackPointExtension></extensions>
      </trkpt>
      <trkpt lat="59.983431789853" lon="15.85983555432">
        <ele>81.6</ele>
        <time>2015-04-24T18:55:50Z</time>
        <extensions><gpxtpx:TrackPointExtension><gpxtpx:hr>157</gpxtpx:hr></gpxtpx:TrackPointExtension></extensions>
      </trkpt>
      <trkpt lat="59.983490044058" lon="15.859611254676">
        <ele>80.6</ele>
        <time>2015-04-24T18:55:55Z</time>
        <extensions><gpxtpx:TrackPointExtension><gpxtpx:hr>157</gpxtpx:hr></gpxtpx:TrackPointExtension></extensions>
      </trkpt>
      <trkpt lat="59.983503538917" lon="15.859559957448">
        <ele>80.4</ele>
        <time>2015-04-24T18:55:56Z</time>
        <extensions><gpxtpx:TrackPointExtension><gpxtpx:hr>156</gpxtpx:hr></gpxtpx:TrackPointExtension></extensions>
      </trkpt>
      <trkpt lat="59.983593728161" lon="15.859197859368">
        <ele>80.8</ele>
        <time>2015-04-24T18:56:04Z</time>
        <extensions><gpxtpx:TrackPointExtension><gpxtpx:hr>157</gpxtpx:hr></gpxtpx:TrackPointExtension></extensions>
      </trkpt>
      <trkpt lat="59.983698082816" lon="15.858998621605">
        <ele>81.4</ele>
        <time>2015-04-24T18:56:10Z</time>
        <extensions><gpxtpx:TrackPointExtension><gpxtpx:hr>155</gpxtpx:hr></gpxtpx:TrackPointExtension></extensions>
      </trkpt>
      <trkpt lat="59.983732029511" lon="15.858965010186">
        <ele>81.6</ele>
        <time>2015-04-24T18:56:12Z</time>
        <extensions><gpxtpx:TrackPointExtension><gpxtpx:hr>155</gpxtpx:hr></gpxtpx:TrackPointExtension></extensions>
      </trkpt>
      <trkpt lat="59.983776872676" lon="15.858960986874">
        <ele>81.8</ele>
        <time>2015-04-24T18:56:14Z</time>
        <extensions><gpxtpx:TrackPointExtension><gpxtpx:hr>155</gpxtpx:hr></gpxtpx:TrackPointExtension></extensions>
      </trkpt>
      <trkpt lat="59.983860440219" lon="15.858908348542">
        <ele>82</ele>
        <time>2015-04-24T18:56:19Z</time>
        <extensions><gpxtpx:TrackPointExtension><gpxtpx:hr>155</gpxtpx:hr></gpxtpx:TrackPointExtension></extensions>
      </trkpt>
      <trkpt lat="59.983952389662" lon="15.858742470741">
        <ele>81.6</ele>
        <time>2015-04-24T18:56:24Z</time>
        <extensions><gpxtpx:TrackPointExtension><gpxtpx:hr>157</gpxtpx:hr></gpxtpx:TrackPointExtension></extensions>
      </trkpt>
      <trkpt lat="59.983998993026" lon="15.858566199384">
        <ele>80.6</ele>
        <time>2015-04-24T18:56:28Z</time>
        <extensions><gpxtpx:TrackPointExtension><gpxtpx:hr>157</gpxtpx:hr></gpxtpx:TrackPointExtension></extensions>
      </trkpt>
      <trkpt lat="59.984047440408" lon="15.858329829804">
        <ele>79.4</ele>
        <time>2015-04-24T18:56:33Z</time>
        <extensions><gpxtpx:TrackPointExtension><gpxtpx:hr>156</gpxtpx:hr></gpxtpx:TrackPointExtension></extensions>
      </trkpt>
      <trkpt lat="59.984090523374" lon="15.858048617059">
        <ele>79</ele>
        <time>2015-04-24T18:56:39Z</time>
        <extensions><gpxtpx:TrackPointExtension><gpxtpx:hr>156</gpxtpx:hr></gpxtpx:TrackPointExtension></extensions>
      </trkpt>
      <trkpt lat="59.984124470069" lon="15.857748293582">
        <ele>79</ele>
        <time>2015-04-24T18:56:45Z</time>
        <extensions><gpxtpx:TrackPointExtension><gpxtpx:hr>156</gpxtpx:hr></gpxtpx:TrackPointExtension></extensions>
      </trkpt>
      <trkpt lat="59.984165206103" lon="15.857374879937">
        <ele>80</ele>
        <time>2015-04-24T18:56:53Z</time>
        <extensions><gpxtpx:TrackPointExtension><gpxtpx:hr>157</gpxtpx:hr></gpxtpx:TrackPointExtension></extensions>
      </trkpt>
      <trkpt lat="59.98419311783" lon="15.857048153475">
        <ele>80.6</ele>
        <time>2015-04-24T18:57:00Z</time>
        <extensions><gpxtpx:TrackPointExtension><gpxtpx:hr>156</gpxtpx:hr></gpxtpx:TrackPointExtension></extensions>
      </trkpt>
      <trkpt lat="59.98422916" lon="15.856669207776">
        <ele>81.2</ele>
        <time>2015-04-24T18:57:08Z</time>
        <extensions><gpxtpx:TrackPointExtension><gpxtpx:hr>157</gpxtpx:hr></gpxtpx:TrackPointExtension></extensions>
      </trkpt>
      <trkpt lat="59.984235697882" lon="15.856625538077">
        <ele>81.4</ele>
        <time>2015-04-24T18:57:09Z</time>
        <extensions><gpxtpx:TrackPointExtension><gpxtpx:hr>158</gpxtpx:hr></gpxtpx:TrackPointExtension></extensions>
      </trkpt>
      <trkpt lat="59.984251372035" lon="15.856483129596">
        <ele>81.6</ele>
        <time>2015-04-24T18:57:12Z</time>
        <extensions><gpxtpx:TrackPointExtension><gpxtpx:hr>158</gpxtpx:hr></gpxtpx:TrackPointExtension></extensions>
      </trkpt>
      <trkpt lat="59.984272159147" lon="15.856291435543">
        <ele>81.6</ele>
        <time>2015-04-24T18:57:16Z</time>
        <extensions><gpxtpx:TrackPointExtension><gpxtpx:hr>158</gpxtpx:hr></gpxtpx:TrackPointExtension></extensions>
      </trkpt>
      <trkpt lat="59.984293113897" lon="15.85596144014">
        <ele>81.6</ele>
        <time>2015-04-24T18:57:23Z</time>
        <extensions><gpxtpx:TrackPointExtension><gpxtpx:hr>159</gpxtpx:hr></gpxtpx:TrackPointExtension></extensions>
      </trkpt>
      <trkpt lat="59.984309458602" lon="15.855589786694">
        <ele>81.6</ele>
        <time>2015-04-24T18:57:30Z</time>
        <extensions><gpxtpx:TrackPointExtension><gpxtpx:hr>158</gpxtpx:hr></gpxtpx:TrackPointExtension></extensions>
      </trkpt>
      <trkpt lat="59.984312895181" lon="15.85556162351">
        <ele>81.6</ele>
        <time>2015-04-24T18:57:31Z</time>
        <extensions><gpxtpx:TrackPointExtension><gpxtpx:hr>159</gpxtpx:hr></gpxtpx:TrackPointExtension></extensions>
      </trkpt>
      <trkpt lat="59.984331083904" lon="15.855171529884">
        <ele>81.4</ele>
        <time>2015-04-24T18:57:38Z</time>
        <extensions><gpxtpx:TrackPointExtension><gpxtpx:hr>159</gpxtpx:hr></gpxtpx:TrackPointExtension></extensions>
      </trkpt>
      <trkpt lat="59.984330245714" lon="15.855134817162">
        <ele>81.4</ele>
        <time>2015-04-24T18:57:39Z</time>
        <extensions><gpxtpx:TrackPointExtension><gpxtpx:hr>159</gpxtpx:hr></gpxtpx:TrackPointExtension></extensions>
      </trkpt>
      <trkpt lat="59.984339717261" lon="15.854873050425">
        <ele>81</ele>
        <time>2015-04-24T18:57:44Z</time>
        <extensions><gpxtpx:TrackPointExtension><gpxtpx:hr>158</gpxtpx:hr></gpxtpx:TrackPointExtension></extensions>
      </trkpt>
      <trkpt lat="59.984345752229" lon="15.854604242892">
        <ele>80.6</ele>
        <time>2015-04-24T18:57:49Z</time>
        <extensions><gpxtpx:TrackPointExtension><gpxtpx:hr>158</gpxtpx:hr></gpxtpx:TrackPointExtension></extensions>
      </trkpt>
      <trkpt lat="59.984347177152" lon="15.854550850189">
        <ele>80.4</ele>
        <time>2015-04-24T18:57:50Z</time>
        <extensions><gpxtpx:TrackPointExtension><gpxtpx:hr>157</gpxtpx:hr></gpxtpx:TrackPointExtension></extensions>
      </trkpt>
      <trkpt lat="59.984365533513" lon="15.854154386319">
        <ele>80</ele>
        <time>2015-04-24T18:57:58Z</time>
        <extensions><gpxtpx:TrackPointExtension><gpxtpx:hr>156</gpxtpx:hr></gpxtpx:TrackPointExtension></extensions>
      </trkpt>
      <trkpt lat="59.984367880445" lon="15.854113315009">
        <ele>80</ele>
        <time>2015-04-24T18:57:59Z</time>
        <extensions><gpxtpx:TrackPointExtension><gpxtpx:hr>155</gpxtpx:hr></gpxtpx:TrackPointExtension></extensions>
      </trkpt>
      <trkpt lat="59.984390511575" lon="15.853817517758">
        <ele>80</ele>
        <time>2015-04-24T18:58:05Z</time>
        <extensions><gpxtpx:TrackPointExtension><gpxtpx:hr>155</gpxtpx:hr></gpxtpx:TrackPointExtension></extensions>
      </trkpt>
      <trkpt lat="59.984426386107" lon="15.853496574807">
        <ele>80.2</ele>
        <time>2015-04-24T18:58:12Z</time>
        <extensions><gpxtpx:TrackPointExtension><gpxtpx:hr>155</gpxtpx:hr></gpxtpx:TrackPointExtension></extensions>
      </trkpt>
      <trkpt lat="59.984465110485" lon="15.853127100655">
        <ele>80.8</ele>
        <time>2015-04-24T18:58:20Z</time>
        <extensions><gpxtpx:TrackPointExtension><gpxtpx:hr>156</gpxtpx:hr></gpxtpx:TrackPointExtension></extensions>
      </trkpt>
      <trkpt lat="59.984502661397" lon="15.852837254553">
        <ele>81.6</ele>
        <time>2015-04-24T18:58:27Z</time>
        <extensions><gpxtpx:TrackPointExtension><gpxtpx:hr>157</gpxtpx:hr></gpxtpx:TrackPointExtension></extensions>
      </trkpt>
      <trkpt lat="59.984516323894" lon="15.852737509943">
        <ele>82</ele>
        <time>2015-04-24T18:58:29Z</time>
        <extensions><gpxtpx:TrackPointExtension><gpxtpx:hr>157</gpxtpx:hr></gpxtpx:TrackPointExtension></extensions>
      </trkpt>
      <trkpt lat="59.984570219511" lon="15.852387230342">
        <ele>82.6</ele>
        <time>2015-04-24T18:58:37Z</time>
        <extensions><gpxtpx:TrackPointExtension><gpxtpx:hr>158</gpxtpx:hr></gpxtpx:TrackPointExtension></extensions>
      </trkpt>
      <trkpt lat="59.984576505936" lon="15.852342638634">
        <ele>82.8</ele>
        <time>2015-04-24T18:58:38Z</time>
        <extensions><gpxtpx:TrackPointExtension><gpxtpx:hr>157</gpxtpx:hr></gpxtpx:TrackPointExtension></extensions>
      </trkpt>
      <trkpt lat="59.984617577246" lon="15.852081793906">
        <ele>83.8</ele>
        <time>2015-04-24T18:58:44Z</time>
        <extensions><gpxtpx:TrackPointExtension><gpxtpx:hr>159</gpxtpx:hr></gpxtpx:TrackPointExtension></extensions>
      </trkpt>
      <trkpt lat="59.984623863671" lon="15.852043991537">
        <ele>84</ele>
        <time>2015-04-24T18:58:45Z</time>
        <extensions><gpxtpx:TrackPointExtension><gpxtpx:hr>159</gpxtpx:hr></gpxtpx:TrackPointExtension></extensions>
      </trkpt>
      <trkpt lat="59.984686727921" lon="15.85168583295">
        <ele>84.8</ele>
        <time>2015-04-24T18:58:53Z</time>
        <extensions><gpxtpx:TrackPointExtension><gpxtpx:hr>160</gpxtpx:hr></gpxtpx:TrackPointExtension></extensions>
      </trkpt>
      <trkpt lat="59.984695696554" lon="15.851636882654">
        <ele>85</ele>
        <time>2015-04-24T18:58:54Z</time>
        <extensions><gpxtpx:TrackPointExtension><gpxtpx:hr>161</gpxtpx:hr></gpxtpx:TrackPointExtension></extensions>
      </trkpt>
      <trkpt lat="59.984756297691" lon="15.851358519755">
        <ele>85.4</ele>
        <time>2015-04-24T18:59:00Z</time>
        <extensions><gpxtpx:TrackPointExtension><gpxtpx:hr>161</gpxtpx:hr></gpxtpx:TrackPointExtension></extensions>
      </trkpt>
      <trkpt lat="59.984821844149" lon="15.851106978936">
        <ele>85.4</ele>
        <time>2015-04-24T18:59:06Z</time>
        <extensions><gpxtpx:TrackPointExtension><gpxtpx:hr>159</gpxtpx:hr></gpxtpx:TrackPointExtension></extensions>
      </trkpt>
      <trkpt lat="59.984907507167" lon="15.850833645177">
        <ele>85.6</ele>
        <time>2015-04-24T18:59:12Z</time>
        <extensions><gpxtpx:TrackPointExtension><gpxtpx:hr>158</gpxtpx:hr></gpxtpx:TrackPointExtension></extensions>
      </trkpt>
      <trkpt lat="59.985022423016" lon="15.850495100236">
        <ele>85.4</ele>
        <time>2015-04-24T18:59:20Z</time>
        <extensions><gpxtpx:TrackPointExtension><gpxtpx:hr>158</gpxtpx:hr></gpxtpx:TrackPointExtension></extensions>
      </trkpt>
      <trkpt lat="59.985045640879" lon="15.850461991731">
        <ele>85.2</ele>
        <time>2015-04-24T18:59:21Z</time>
        <extensions><gpxtpx:TrackPointExtension><gpxtpx:hr>158</gpxtpx:hr></gpxtpx:TrackPointExtension></extensions>
      </trkpt>
      <trkpt lat="59.985091489872" lon="15.850353865221">
        <ele>85.2</ele>
        <time>2015-04-24T18:59:24Z</time>
        <extensions><gpxtpx:TrackPointExtension><gpxtpx:hr>157</gpxtpx:hr></gpxtpx:TrackPointExtension></extensions>
      </trkpt>
      <trkpt lat="59.985128034956" lon="15.85024917529">
        <ele>85.4</ele>
        <time>2015-04-24T18:59:27Z</time>
        <extensions><gpxtpx:TrackPointExtension><gpxtpx:hr>158</gpxtpx:hr></gpxtpx:TrackPointExtension></extensions>
      </trkpt>
      <trkpt lat="59.985177571985" lon="15.850129900853">
        <ele>85.6</ele>
        <time>2015-04-24T18:59:30Z</time>
        <extensions><gpxtpx:TrackPointExtension><gpxtpx:hr>158</gpxtpx:hr></gpxtpx:TrackPointExtension></extensions>
      </trkpt>
      <trkpt lat="59.985261223347" lon="15.849919850439">
        <ele>85.8</ele>
        <time>2015-04-24T18:59:36Z</time>
        <extensions><gpxtpx:TrackPointExtension><gpxtpx:hr>159</gpxtpx:hr></gpxtpx:TrackPointExtension></extensions>
      </trkpt>
      <trkpt lat="59.985271281627" lon="15.84988037169">
        <ele>86</ele>
        <time>2015-04-24T18:59:37Z</time>
        <extensions><gpxtpx:TrackPointExtension><gpxtpx:hr>159</gpxtpx:hr></gpxtpx:TrackPointExtension></extensions>
      </trkpt>
      <trkpt lat="59.985289302712" lon="15.849854639257">
        <ele>86</ele>
        <time>2015-04-24T18:59:38Z</time>
        <extensions><gpxtpx:TrackPointExtension><gpxtpx:hr>159</gpxtpx:hr></gpxtpx:TrackPointExtension></extensions>
      </trkpt>
      <trkpt lat="59.985335486981" lon="15.849752799172">
        <ele>86.4</ele>
        <time>2015-04-24T18:59:41Z</time>
        <extensions><gpxtpx:TrackPointExtension><gpxtpx:hr>160</gpxtpx:hr></gpxtpx:TrackPointExtension></extensions>
      </trkpt>
      <trkpt lat="59.985397010127" lon="15.849569989933">
        <ele>86.8</ele>
        <time>2015-04-24T18:59:46Z</time>
        <extensions><gpxtpx:TrackPointExtension><gpxtpx:hr>160</gpxtpx:hr></gpxtpx:TrackPointExtension></extensions>
      </trkpt>
      <trkpt lat="59.985411929909" lon="15.849547442622">
        <ele>86.8</ele>
        <time>2015-04-24T18:59:47Z</time>
        <extensions><gpxtpx:TrackPointExtension><gpxtpx:hr>159</gpxtpx:hr></gpxtpx:TrackPointExtension></extensions>
      </trkpt>
      <trkpt lat="59.985453168857" lon="15.849466473468">
        <ele>87</ele>
        <time>2015-04-24T18:59:49Z</time>
        <extensions><gpxtpx:TrackPointExtension><gpxtpx:hr>160</gpxtpx:hr></gpxtpx:TrackPointExtension></extensions>
      </trkpt>
      <trkpt lat="59.985457527445" lon="15.84943780737">
        <ele>87</ele>
        <time>2015-04-24T18:59:50Z</time>
        <extensions><gpxtpx:TrackPointExtension><gpxtpx:hr>160</gpxtpx:hr></gpxtpx:TrackPointExtension></extensions>
      </trkpt>
      <trkpt lat="59.985481583498" lon="15.849350719429">
        <ele>87.2</ele>
        <time>2015-04-24T18:59:52Z</time>
        <extensions><gpxtpx:TrackPointExtension><gpxtpx:hr>160</gpxtpx:hr></gpxtpx:TrackPointExtension></extensions>
      </trkpt>
      <trkpt lat="59.985516452202" lon="15.849249633715">
        <ele>87.2</ele>
        <time>2015-04-24T18:59:55Z</time>
        <extensions><gpxtpx:TrackPointExtension><gpxtpx:hr>161</gpxtpx:hr></gpxtpx:TrackPointExtension></extensions>
      </trkpt>
      <trkpt lat="59.985582669212" lon="15.849050982685">
        <ele>87.2</ele>
        <time>2015-04-24T19:00:00Z</time>
        <extensions><gpxtpx:TrackPointExtension><gpxtpx:hr>161</gpxtpx:hr></gpxtpx:TrackPointExtension></extensions>
      </trkpt>
      <trkpt lat="59.985640588141" lon="15.848848643619">
        <ele>87.4</ele>
        <time>2015-04-24T19:00:05Z</time>
        <extensions><gpxtpx:TrackPointExtension><gpxtpx:hr>161</gpxtpx:hr></gpxtpx:TrackPointExtension></extensions>
      </trkpt>
      <trkpt lat="59.9856708468" lon="15.848828862335">
        <ele>87.4</ele>
        <time>2015-04-24T19:00:06Z</time>
        <extensions><gpxtpx:TrackPointExtension><gpxtpx:hr>161</gpxtpx:hr></gpxtpx:TrackPointExtension></extensions>
      </trkpt>
      <trkpt lat="59.985707810979" lon="15.848741355299">
        <ele>87.4</ele>
        <time>2015-04-24T19:00:08Z</time>
        <extensions><gpxtpx:TrackPointExtension><gpxtpx:hr>161</gpxtpx:hr></gpxtpx:TrackPointExtension></extensions>
      </trkpt>
      <trkpt lat="59.985728765729" lon="15.848665247647">
        <ele>87.4</ele>
        <time>2015-04-24T19:00:10Z</time>
        <extensions><gpxtpx:TrackPointExtension><gpxtpx:hr>161</gpxtpx:hr></gpxtpx:TrackPointExtension></extensions>
      </trkpt>
      <trkpt lat="59.985769250306" lon="15.848494256887">
        <ele>87.2</ele>
        <time>2015-04-24T19:00:14Z</time>
        <extensions><gpxtpx:TrackPointExtension><gpxtpx:hr>161</gpxtpx:hr></gpxtpx:TrackPointExtension></extensions>
      </trkpt>
      <trkpt lat="59.98582423557" lon="15.848294264753">
        <ele>87</ele>
        <time>2015-04-24T19:00:19Z</time>
        <extensions><gpxtpx:TrackPointExtension><gpxtpx:hr>159</gpxtpx:hr></gpxtpx:TrackPointExtension></extensions>
      </trkpt>
      <trkpt lat="59.985888692381" lon="15.848016823863">
        <ele>87</ele>
        <time>2015-04-24T19:00:25Z</time>
        <extensions><gpxtpx:TrackPointExtension><gpxtpx:hr>157</gpxtpx:hr></gpxtpx:TrackPointExtension></extensions>
      </trkpt>
      <trkpt lat="59.985950718441" lon="15.847692947247">
        <ele>86.4</ele>
        <time>2015-04-24T19:00:32Z</time>
        <extensions><gpxtpx:TrackPointExtension><gpxtpx:hr>158</gpxtpx:hr></gpxtpx:TrackPointExtension></extensions>
      </trkpt>
      <trkpt lat="59.986015761985" lon="15.847389438648">
        <ele>86.6</ele>
        <time>2015-04-24T19:00:39Z</time>
        <extensions><gpxtpx:TrackPointExtension><gpxtpx:hr>158</gpxtpx:hr></gpxtpx:TrackPointExtension></extensions>
      </trkpt>
      <trkpt lat="59.986086672859" lon="15.847189362695">
        <ele>87</ele>
        <time>2015-04-24T19:00:44Z</time>
        <extensions><gpxtpx:TrackPointExtension><gpxtpx:hr>159</gpxtpx:hr></gpxtpx:TrackPointExtension></extensions>
      </trkpt>
      <trkpt lat="59.986097653148" lon="15.847142088779">
        <ele>87</ele>
        <time>2015-04-24T19:00:45Z</time>
        <extensions><gpxtpx:TrackPointExtension><gpxtpx:hr>158</gpxtpx:hr></gpxtpx:TrackPointExtension></extensions>
      </trkpt>
      <trkpt lat="59.986117518251" lon="15.847013426614">
        <ele>87.2</ele>
        <time>2015-04-24T19:00:48Z</time>
        <extensions><gpxtpx:TrackPointExtension><gpxtpx:hr>159</gpxtpx:hr></gpxtpx:TrackPointExtension></extensions>
      </trkpt>
      <trkpt lat="59.986161020312" lon="15.846797173594">
        <ele>87.4</ele>
        <time>2015-04-24T19:00:53Z</time>
        <extensions><gpxtpx:TrackPointExtension><gpxtpx:hr>158</gpxtpx:hr></gpxtpx:TrackPointExtension></extensions>
      </trkpt>
      <trkpt lat="59.986173676981" lon="15.846703547771">
        <ele>87.6</ele>
        <time>2015-04-24T19:00:55Z</time>
        <extensions><gpxtpx:TrackPointExtension><gpxtpx:hr>159</gpxtpx:hr></gpxtpx:TrackPointExtension></extensions>
      </trkpt>
      <trkpt lat="59.986196559568" lon="15.846517218134">
        <ele>87.4</ele>
        <time>2015-04-24T19:00:59Z</time>
        <extensions><gpxtpx:TrackPointExtension><gpxtpx:hr>158</gpxtpx:hr></gpxtpx:TrackPointExtension></extensions>
      </trkpt>
      <trkpt lat="59.986215167386" lon="15.84615964628">
        <ele>86.4</ele>
        <time>2015-04-24T19:01:06Z</time>
        <extensions><gpxtpx:TrackPointExtension><gpxtpx:hr>157</gpxtpx:hr></gpxtpx:TrackPointExtension></extensions>
      </trkpt>
      <trkpt lat="59.986192368618" lon="15.845970550616">
        <ele>86</ele>
        <time>2015-04-24T19:01:10Z</time>
        <extensions><gpxtpx:TrackPointExtension><gpxtpx:hr>157</gpxtpx:hr></gpxtpx:TrackPointExtension></extensions>
      </trkpt>
      <trkpt lat="59.986142077218" lon="15.845677519392">
        <ele>85.6</ele>
        <time>2015-04-24T19:01:16Z</time>
        <extensions><gpxtpx:TrackPointExtension><gpxtpx:hr>157</gpxtpx:hr></gpxtpx:TrackPointExtension></extensions>
      </trkpt>
      <trkpt lat="59.986058425856" lon="15.845389433489">
        <ele>85.4</ele>
        <time>2015-04-24T19:01:22Z</time>
        <extensions><gpxtpx:TrackPointExtension><gpxtpx:hr>156</gpxtpx:hr></gpxtpx:TrackPointExtension></extensions>
      </trkpt>
      <trkpt lat="59.985980390367" lon="15.845176365591">
        <ele>85</ele>
        <time>2015-04-24T19:01:27Z</time>
        <extensions><gpxtpx:TrackPointExtension><gpxtpx:hr>157</gpxtpx:hr></gpxtpx:TrackPointExtension></extensions>
      </trkpt>
      <trkpt lat="59.985921633248" lon="15.845039321526">
        <ele>85</ele>
        <time>2015-04-24T19:01:30Z</time>
        <extensions><gpxtpx:TrackPointExtension><gpxtpx:hr>158</gpxtpx:hr></gpxtpx:TrackPointExtension></extensions>
      </trkpt>
      <trkpt lat="59.985870838934" lon="15.844915856139">
        <ele>84.8</ele>
        <time>2015-04-24T19:01:33Z</time>
        <extensions><gpxtpx:TrackPointExtension><gpxtpx:hr>157</gpxtpx:hr></gpxtpx:TrackPointExtension></extensions>
      </trkpt>
      <trkpt lat="59.985779308586" lon="15.844701698594">
        <ele>84.8</ele>
        <time>2015-04-24T19:01:38Z</time>
        <extensions><gpxtpx:TrackPointExtension><gpxtpx:hr>158</gpxtpx:hr></gpxtpx:TrackPointExtension></extensions>
      </trkpt>
      <trkpt lat="59.985717869259" lon="15.844514866043">
        <ele>85.2</ele>
        <time>2015-04-24T19:01:43Z</time>
        <extensions><gpxtpx:TrackPointExtension><gpxtpx:hr>157</gpxtpx:hr></gpxtpx:TrackPointExtension></extensions>
      </trkpt>
      <trkpt lat="59.985667326402" lon="15.844353011554">
        <ele>86</ele>
        <time>2015-04-24T19:01:47Z</time>
        <extensions><gpxtpx:TrackPointExtension><gpxtpx:hr>157</gpxtpx:hr></gpxtpx:TrackPointExtension></extensions>
      </trkpt>
      <trkpt lat="59.985638827942" lon="15.844253183125">
        <ele>86.4</ele>
        <time>2015-04-24T19:01:49Z</time>
        <extensions><gpxtpx:TrackPointExtension><gpxtpx:hr>158</gpxtpx:hr></gpxtpx:TrackPointExtension></extensions>
      </trkpt>
      <trkpt lat="59.985593230406" lon="15.844039779951">
        <ele>87</ele>
        <time>2015-04-24T19:01:54Z</time>
        <extensions><gpxtpx:TrackPointExtension><gpxtpx:hr>159</gpxtpx:hr></gpxtpx:TrackPointExtension></extensions>
      </trkpt>
      <trkpt lat="59.98559289513" lon="15.84400549798">
        <ele>87.2</ele>
        <time>2015-04-24T19:01:55Z</time>
        <extensions><gpxtpx:TrackPointExtension><gpxtpx:hr>158</gpxtpx:hr></gpxtpx:TrackPointExtension></extensions>
      </trkpt>
      <trkpt lat="59.9855535002" lon="15.843644321909">
        <ele>87.4</ele>
        <time>2015-04-24T19:02:02Z</time>
        <extensions><gpxtpx:TrackPointExtension><gpxtpx:hr>158</gpxtpx:hr></gpxtpx:TrackPointExtension></extensions>
      </trkpt>
      <trkpt lat="59.985556936779" lon="15.843339220749">
        <ele>87</ele>
        <time>2015-04-24T19:02:08Z</time>
        <extensions><gpxtpx:TrackPointExtension><gpxtpx:hr>157</gpxtpx:hr></gpxtpx:TrackPointExtension></extensions>
      </trkpt>
      <trkpt lat="59.985602366677" lon="15.843035376874">
        <ele>86.6</ele>
        <time>2015-04-24T19:02:14Z</time>
        <extensions><gpxtpx:TrackPointExtension><gpxtpx:hr>156</gpxtpx:hr></gpxtpx:TrackPointExtension></extensions>
      </trkpt>
      <trkpt lat="59.985643102711" lon="15.842817698931">
        <ele>86</ele>
        <time>2015-04-24T19:02:19Z</time>
        <extensions><gpxtpx:TrackPointExtension><gpxtpx:hr>157</gpxtpx:hr></gpxtpx:TrackPointExtension></extensions>
      </trkpt>
      <trkpt lat="59.985654166819" lon="15.842756678699">
        <ele>85.8</ele>
        <time>2015-04-24T19:02:20Z</time>
        <extensions><gpxtpx:TrackPointExtension><gpxtpx:hr>157</gpxtpx:hr></gpxtpx:TrackPointExtension></extensions>
      </trkpt>
      <trkpt lat="59.985726921711" lon="15.842542102059">
        <ele>85</ele>
        <time>2015-04-24T19:02:25Z</time>
        <extensions><gpxtpx:TrackPointExtension><gpxtpx:hr>158</gpxtpx:hr></gpxtpx:TrackPointExtension></extensions>
      </trkpt>
      <trkpt lat="59.985784924459" lon="15.842337583699">
        <ele>84.2</ele>
        <time>2015-04-24T19:02:30Z</time>
        <extensions><gpxtpx:TrackPointExtension><gpxtpx:hr>157</gpxtpx:hr></gpxtpx:TrackPointExtension></extensions>
      </trkpt>
      <trkpt lat="59.985823145923" lon="15.842211017009">
        <ele>83.8</ele>
        <time>2015-04-24T19:02:33Z</time>
        <extensions><gpxtpx:TrackPointExtension><gpxtpx:hr>157</gpxtpx:hr></gpxtpx:TrackPointExtension></extensions>
      </trkpt>
      <trkpt lat="59.985843262483" lon="15.842136585737">
        <ele>83.4</ele>
        <time>2015-04-24T19:02:35Z</time>
        <extensions><gpxtpx:TrackPointExtension><gpxtpx:hr>157</gpxtpx:hr></gpxtpx:TrackPointExtension></extensions>
      </trkpt>
      <trkpt lat="59.985871760943" lon="15.84195109429">
        <ele>83.6</ele>
        <time>2015-04-24T19:02:39Z</time>
        <extensions><gpxtpx:TrackPointExtension><gpxtpx:hr>156</gpxtpx:hr></gpxtpx:TrackPointExtension></extensions>
      </trkpt>
      <trkpt lat="59.985922722895" lon="15.841800136271">
        <ele>83.2</ele>
        <time>2015-04-24T19:02:43Z</time>
        <extensions><gpxtpx:TrackPointExtension><gpxtpx:hr>156</gpxtpx:hr></gpxtpx:TrackPointExtension></extensions>
      </trkpt>
      <trkpt lat="59.985975361227" lon="15.841671557925">
        <ele>83</ele>
        <time>2015-04-24T19:02:46Z</time>
        <extensions><gpxtpx:TrackPointExtension><gpxtpx:hr>156</gpxtpx:hr></gpxtpx:TrackPointExtension></extensions>
      </trkpt>
      <trkpt lat="59.986018276555" lon="15.841588074201">
        <ele>83.2</ele>
        <time>2015-04-24T19:02:48Z</time>
        <extensions><gpxtpx:TrackPointExtension><gpxtpx:hr>156</gpxtpx:hr></gpxtpx:TrackPointExtension></extensions>
      </trkpt>
      <trkpt lat="59.986112237654" lon="15.841467793936">
        <ele>83.2</ele>
        <time>2015-04-24T19:02:52Z</time>
        <extensions><gpxtpx:TrackPointExtension><gpxtpx:hr>157</gpxtpx:hr></gpxtpx:TrackPointExtension></extensions>
      </trkpt>
      <trkpt lat="59.986170491859" lon="15.841367211136">
        <ele>83.2</ele>
        <time>2015-04-24T19:02:55Z</time>
        <extensions><gpxtpx:TrackPointExtension><gpxtpx:hr>157</gpxtpx:hr></gpxtpx:TrackPointExtension></extensions>
      </trkpt>
      <trkpt lat="59.986240229267" lon="15.841235112392">
        <ele>83.2</ele>
        <time>2015-04-24T19:02:58Z</time>
        <extensions><gpxtpx:TrackPointExtension><gpxtpx:hr>157</gpxtpx:hr></gpxtpx:TrackPointExtension></extensions>
      </trkpt>
      <trkpt lat="59.986280630025" lon="15.841098403603">
        <ele>83</ele>
        <time>2015-04-24T19:03:01Z</time>
        <extensions><gpxtpx:TrackPointExtension><gpxtpx:hr>157</gpxtpx:hr></gpxtpx:TrackPointExtension></extensions>
      </trkpt>
      <trkpt lat="59.98631457672" lon="15.840864967688">
        <ele>83</ele>
        <time>2015-04-24T19:03:06Z</time>
        <extensions><gpxtpx:TrackPointExtension><gpxtpx:hr>157</gpxtpx:hr></gpxtpx:TrackPointExtension></extensions>
      </trkpt>
      <trkpt lat="59.986332513986" lon="15.84078684838">
        <ele>83</ele>
        <time>2015-04-24T19:03:08Z</time>
        <extensions><gpxtpx:TrackPointExtension><gpxtpx:hr>157</gpxtpx:hr></gpxtpx:TrackPointExtension></extensions>
      </trkpt>
      <trkpt lat="59.98637157364" lon="15.840708729072">
        <ele>83</ele>
        <time>2015-04-24T19:03:11Z</time>
        <extensions><gpxtpx:TrackPointExtension><gpxtpx:hr>157</gpxtpx:hr></gpxtpx:TrackPointExtension></extensions>
      </trkpt>
      <trkpt lat="59.986414824244" lon="15.840573026111">
        <ele>83</ele>
        <time>2015-04-24T19:03:15Z</time>
        <extensions><gpxtpx:TrackPointExtension><gpxtpx:hr>156</gpxtpx:hr></gpxtpx:TrackPointExtension></extensions>
      </trkpt>
      <trkpt lat="59.986464948006" lon="15.84047671808">
        <ele>83.2</ele>
        <time>2015-04-24T19:03:18Z</time>
        <extensions><gpxtpx:TrackPointExtension><gpxtpx:hr>157</gpxtpx:hr></gpxtpx:TrackPointExtension></extensions>
      </trkpt>
      <trkpt lat="59.986573745068" lon="15.840325173328">
        <ele>83.4</ele>
        <time>2015-04-24T19:03:24Z</time>
        <extensions><gpxtpx:TrackPointExtension><gpxtpx:hr>159</gpxtpx:hr></gpxtpx:TrackPointExtension></extensions>
      </trkpt>
      <trkpt lat="59.986610206333" lon="15.840200283018">
        <ele>83.8</ele>
        <time>2015-04-24T19:03:28Z</time>
        <extensions><gpxtpx:TrackPointExtension><gpxtpx:hr>159</gpxtpx:hr></gpxtpx:TrackPointExtension></extensions>
      </trkpt>
      <trkpt lat="59.986626634857" lon="15.840181759019">
        <ele>84</ele>
        <time>2015-04-24T19:03:29Z</time>
        <extensions><gpxtpx:TrackPointExtension><gpxtpx:hr>158</gpxtpx:hr></gpxtpx:TrackPointExtension></extensions>
      </trkpt>
      <trkpt lat="59.986704837984" lon="15.840071788491">
        <ele>84.8</ele>
        <time>2015-04-24T19:03:33Z</time>
        <extensions><gpxtpx:TrackPointExtension><gpxtpx:hr>159</gpxtpx:hr></gpxtpx:TrackPointExtension></extensions>
      </trkpt>
      <trkpt lat="59.986781197093" lon="15.839964667809">
        <ele>85.4</ele>
        <time>2015-04-24T19:03:37Z</time>
        <extensions><gpxtpx:TrackPointExtension><gpxtpx:hr>160</gpxtpx:hr></gpxtpx:TrackPointExtension></extensions>
      </trkpt>
      <trkpt lat="59.986810114648" lon="15.83992099811">
        <ele>85.4</ele>
        <time>2015-04-24T19:03:39Z</time>
        <extensions><gpxtpx:TrackPointExtension><gpxtpx:hr>160</gpxtpx:hr></gpxtpx:TrackPointExtension></extensions>
      </trkpt>
      <trkpt lat="59.98687951678" lon="15.839826785554">
        <ele>86</ele>
        <time>2015-04-24T19:03:42Z</time>
        <extensions><gpxtpx:TrackPointExtension><gpxtpx:hr>160</gpxtpx:hr></gpxtpx:TrackPointExtension></extensions>
      </trkpt>
      <trkpt lat="59.986963671056" lon="15.839714384275">
        <ele>86.4</ele>
        <time>2015-04-24T19:03:46Z</time>
        <extensions><gpxtpx:TrackPointExtension><gpxtpx:hr>159</gpxtpx:hr></gpxtpx:TrackPointExtension></extensions>
      </trkpt>
      <trkpt lat="59.987057296879" lon="15.839561666057">
        <ele>86.8</ele>
        <time>2015-04-24T19:03:51Z</time>
        <extensions><gpxtpx:TrackPointExtension><gpxtpx:hr>158</gpxtpx:hr></gpxtpx:TrackPointExtension></extensions>
      </trkpt>
      <trkpt lat="59.987076826706" lon="15.839505674965">
        <ele>87</ele>
        <time>2015-04-24T19:03:52Z</time>
        <extensions><gpxtpx:TrackPointExtension><gpxtpx:hr>158</gpxtpx:hr></gpxtpx:TrackPointExtension></extensions>
      </trkpt>
      <trkpt lat="59.987142373164" lon="15.839362512113">
        <ele>87.2</ele>
        <time>2015-04-24T19:03:56Z</time>
        <extensions><gpxtpx:TrackPointExtension><gpxtpx:hr>158</gpxtpx:hr></gpxtpx:TrackPointExtension></extensions>
      </trkpt>
      <trkpt lat="59.987247649828" lon="15.839147600197">
        <ele>87.2</ele>
        <time>2015-04-24T19:04:02Z</time>
        <extensions><gpxtpx:TrackPointExtension><gpxtpx:hr>160</gpxtpx:hr></gpxtpx:TrackPointExtension></extensions>
      </trkpt>
      <trkpt lat="59.987270783872" lon="15.839057243315">
        <ele>87.4</ele>
        <time>2015-04-24T19:04:04Z</time>
        <extensions><gpxtpx:TrackPointExtension><gpxtpx:hr>160</gpxtpx:hr></gpxtpx:TrackPointExtension></extensions>
      </trkpt>
      <trkpt lat="59.987301377807" lon="15.838977950541">
        <ele>87.4</ele>
        <time>2015-04-24T19:04:06Z</time>
        <extensions><gpxtpx:TrackPointExtension><gpxtpx:hr>162</gpxtpx:hr></gpxtpx:TrackPointExtension></extensions>
      </trkpt>
      <trkpt lat="59.987329205715" lon="15.838880049949">
        <ele>87.6</ele>
        <time>2015-04-24T19:04:08Z</time>
        <extensions><gpxtpx:TrackPointExtension><gpxtpx:hr>162</gpxtpx:hr></gpxtpx:TrackPointExtension></extensions>
      </trkpt>
      <trkpt lat="59.987368013912" lon="15.838761948978">
        <ele>87.8</ele>
        <time>2015-04-24T19:04:11Z</time>
        <extensions><gpxtpx:TrackPointExtension><gpxtpx:hr>163</gpxtpx:hr></gpxtpx:TrackPointExtension></extensions>
      </trkpt>
      <trkpt lat="59.987436410216" lon="15.838456596361">
        <ele>87.8</ele>
        <time>2015-04-24T19:04:17Z</time>
        <extensions><gpxtpx:TrackPointExtension><gpxtpx:hr>164</gpxtpx:hr></gpxtpx:TrackPointExtension></extensions>
      </trkpt>
      <trkpt lat="59.987445043573" lon="15.838406724056">
        <ele>88</ele>
        <time>2015-04-24T19:04:18Z</time>
        <extensions><gpxtpx:TrackPointExtension><gpxtpx:hr>164</gpxtpx:hr></gpxtpx:TrackPointExtension></extensions>
      </trkpt>
      <trkpt lat="59.987481085743" lon="15.838223579541">
        <ele>88.2</ele>
        <time>2015-04-24T19:04:22Z</time>
        <extensions><gpxtpx:TrackPointExtension><gpxtpx:hr>163</gpxtpx:hr></gpxtpx:TrackPointExtension></extensions>
      </trkpt>
      <trkpt lat="59.987485025236" lon="15.838195751633">
        <ele>88.4</ele>
        <time>2015-04-24T19:04:23Z</time>
        <extensions><gpxtpx:TrackPointExtension><gpxtpx:hr>163</gpxtpx:hr></gpxtpx:TrackPointExtension></extensions>
      </trkpt>
      <trkpt lat="59.987535987188" lon="15.838017384801">
        <ele>88.2</ele>
        <time>2015-04-24T19:04:27Z</time>
        <extensions><gpxtpx:TrackPointExtension><gpxtpx:hr>163</gpxtpx:hr></gpxtpx:TrackPointExtension></extensions>
      </trkpt>
      <trkpt lat="59.987563060725" lon="15.837807753482">
        <ele>88.4</ele>
        <time>2015-04-24T19:04:31Z</time>
        <extensions><gpxtpx:TrackPointExtension><gpxtpx:hr>164</gpxtpx:hr></gpxtpx:TrackPointExtension></extensions>
      </trkpt>
      <trkpt lat="59.987575801213" lon="15.837733154572">
        <ele>88.2</ele>
        <time>2015-04-24T19:04:32Z</time>
        <extensions><gpxtpx:TrackPointExtension><gpxtpx:hr>163</gpxtpx:hr></gpxtpx:TrackPointExtension></extensions>
      </trkpt>
      <trkpt lat="59.987626930803" lon="15.837471471654">
        <ele>88</ele>
        <time>2015-04-24T19:04:37Z</time>
        <extensions><gpxtpx:TrackPointExtension><gpxtpx:hr>162</gpxtpx:hr></gpxtpx:TrackPointExtension></extensions>
      </trkpt>
      <trkpt lat="59.987669007941" lon="15.837253374616">
        <ele>87.6</ele>
        <time>2015-04-24T19:04:42Z</time>
        <extensions><gpxtpx:TrackPointExtension><gpxtpx:hr>162</gpxtpx:hr></gpxtpx:TrackPointExtension></extensions>
      </trkpt>
      <trkpt lat="59.987758191357" lon="15.836950368931">
        <ele>87.6</ele>
        <time>2015-04-24T19:04:49Z</time>
        <extensions><gpxtpx:TrackPointExtension><gpxtpx:hr>163</gpxtpx:hr></gpxtpx:TrackPointExtension></extensions>
      </trkpt>
      <trkpt lat="59.987837148855" lon="15.836678292457">
        <ele>88</ele>
        <time>2015-04-24T19:04:55Z</time>
        <extensions><gpxtpx:TrackPointExtension><gpxtpx:hr>163</gpxtpx:hr></gpxtpx:TrackPointExtension></extensions>
      </trkpt>
      <trkpt lat="59.98789540306" lon="15.836353829108">
        <ele>87.8</ele>
        <time>2015-04-24T19:05:01Z</time>
        <extensions><gpxtpx:TrackPointExtension><gpxtpx:hr>163</gpxtpx:hr></gpxtpx:TrackPointExtension></extensions>
      </trkpt>
      <trkpt lat="59.987926667547" lon="15.836037580021">
        <ele>87.8</ele>
        <time>2015-04-24T19:05:07Z</time>
        <extensions><gpxtpx:TrackPointExtension><gpxtpx:hr>162</gpxtpx:hr></gpxtpx:TrackPointExtension></extensions>
      </trkpt>
      <trkpt lat="59.987935971456" lon="15.835689731171">
        <ele>87.6</ele>
        <time>2015-04-24T19:05:13Z</time>
        <extensions><gpxtpx:TrackPointExtension><gpxtpx:hr>162</gpxtpx:hr></gpxtpx:TrackPointExtension></extensions>
      </trkpt>
      <trkpt lat="59.987937564017" lon="15.835428886443">
        <ele>87.8</ele>
        <time>2015-04-24T19:05:18Z</time>
        <extensions><gpxtpx:TrackPointExtension><gpxtpx:hr>161</gpxtpx:hr></gpxtpx:TrackPointExtension></extensions>
      </trkpt>
      <trkpt lat="59.987937731655" lon="15.835044576328">
        <ele>87.8</ele>
        <time>2015-04-24T19:05:25Z</time>
        <extensions><gpxtpx:TrackPointExtension><gpxtpx:hr>161</gpxtpx:hr></gpxtpx:TrackPointExtension></extensions>
      </trkpt>
      <trkpt lat="59.987940330044" lon="15.83495472236">
        <ele>87.6</ele>
        <time>2015-04-24T19:05:27Z</time>
        <extensions><gpxtpx:TrackPointExtension><gpxtpx:hr>161</gpxtpx:hr></gpxtpx:TrackPointExtension></extensions>
      </trkpt>
      <trkpt lat="59.987951897066" lon="15.834779875926">
        <ele>87</ele>
        <time>2015-04-24T19:05:30Z</time>
        <extensions><gpxtpx:TrackPointExtension><gpxtpx:hr>160</gpxtpx:hr></gpxtpx:TrackPointExtension></extensions>
      </trkpt>
      <trkpt lat="59.987965978658" lon="15.834579045602">
        <ele>86.2</ele>
        <time>2015-04-24T19:05:34Z</time>
        <extensions><gpxtpx:TrackPointExtension><gpxtpx:hr>160</gpxtpx:hr></gpxtpx:TrackPointExtension></extensions>
      </trkpt>
      <trkpt lat="59.987975282567" lon="15.834492292937">
        <ele>86</ele>
        <time>2015-04-24T19:05:36Z</time>
        <extensions><gpxtpx:TrackPointExtension><gpxtpx:hr>160</gpxtpx:hr></gpxtpx:TrackPointExtension></extensions>
      </trkpt>
      <trkpt lat="59.988001601733" lon="15.834360194193">
        <ele>85.8</ele>
        <time>2015-04-24T19:05:39Z</time>
        <extensions><gpxtpx:TrackPointExtension><gpxtpx:hr>160</gpxtpx:hr></gpxtpx:TrackPointExtension></extensions>
      </trkpt>
      <trkpt lat="59.988063963069" lon="15.834104630062">
        <ele>86</ele>
        <time>2015-04-24T19:05:44Z</time>
        <extensions><gpxtpx:TrackPointExtension><gpxtpx:hr>160</gpxtpx:hr></gpxtpx:TrackPointExtension></extensions>
      </trkpt>
      <trkpt lat="59.98814686006" lon="15.833827021534">
        <ele>85.6</ele>
        <time>2015-04-24T19:05:50Z</time>
        <extensions><gpxtpx:TrackPointExtension><gpxtpx:hr>159</gpxtpx:hr></gpxtpx:TrackPointExtension></extensions>
      </trkpt>
      <trkpt lat="59.988206036274" lon="15.833626275029">
        <ele>85.4</ele>
        <time>2015-04-24T19:05:55Z</time>
        <extensions><gpxtpx:TrackPointExtension><gpxtpx:hr>158</gpxtpx:hr></gpxtpx:TrackPointExtension></extensions>
      </trkpt>
      <trkpt lat="59.988279210261" lon="15.833402645937">
        <ele>85</ele>
        <time>2015-04-24T19:06:00Z</time>
        <extensions><gpxtpx:TrackPointExtension><gpxtpx:hr>159</gpxtpx:hr></gpxtpx:TrackPointExtension></extensions>
      </trkpt>
      <trkpt lat="59.988289519998" lon="15.833357802772">
        <ele>84.8</ele>
        <time>2015-04-24T19:06:01Z</time>
        <extensions><gpxtpx:TrackPointExtension><gpxtpx:hr>158</gpxtpx:hr></gpxtpx:TrackPointExtension></extensions>
      </trkpt>
      <trkpt lat="59.988375853568" lon="15.833161163398">
        <ele>85</ele>
        <time>2015-04-24T19:06:06Z</time>
        <extensions><gpxtpx:TrackPointExtension><gpxtpx:hr>159</gpxtpx:hr></gpxtpx:TrackPointExtension></extensions>
      </trkpt>
      <trkpt lat="59.988486159372" lon="15.832858660627">
        <ele>84.6</ele>
        <time>2015-04-24T19:06:13Z</time>
        <extensions><gpxtpx:TrackPointExtension><gpxtpx:hr>159</gpxtpx:hr></gpxtpx:TrackPointExtension></extensions>
      </trkpt>
      <trkpt lat="59.988564194861" lon="15.832627320187">
        <ele>84.4</ele>
        <time>2015-04-24T19:06:18Z</time>
        <extensions><gpxtpx:TrackPointExtension><gpxtpx:hr>159</gpxtpx:hr></gpxtpx:TrackPointExtension></extensions>
      </trkpt>
      <trkpt lat="59.988664777661" lon="15.832380808508">
        <ele>84.4</ele>
        <time>2015-04-24T19:06:24Z</time>
        <extensions><gpxtpx:TrackPointExtension><gpxtpx:hr>159</gpxtpx:hr></gpxtpx:TrackPointExtension></extensions>
      </trkpt>
      <trkpt lat="59.988756559466" lon="15.832191461387">
        <ele>84.4</ele>
        <time>2015-04-24T19:06:29Z</time>
        <extensions><gpxtpx:TrackPointExtension><gpxtpx:hr>159</gpxtpx:hr></gpxtpx:TrackPointExtension></extensions>
      </trkpt>
      <trkpt lat="59.988877677921" lon="15.831927347718">
        <ele>84</ele>
        <time>2015-04-24T19:06:36Z</time>
        <extensions><gpxtpx:TrackPointExtension><gpxtpx:hr>159</gpxtpx:hr></gpxtpx:TrackPointExtension></extensions>
      </trkpt>
      <trkpt lat="59.988952193012" lon="15.831732300905">
        <ele>84.2</ele>
        <time>2015-04-24T19:06:41Z</time>
        <extensions><gpxtpx:TrackPointExtension><gpxtpx:hr>159</gpxtpx:hr></gpxtpx:TrackPointExtension></extensions>
      </trkpt>
      <trkpt lat="59.989047746672" lon="15.831527447269">
        <ele>84.4</ele>
        <time>2015-04-24T19:06:46Z</time>
        <extensions><gpxtpx:TrackPointExtension><gpxtpx:hr>159</gpxtpx:hr></gpxtpx:TrackPointExtension></extensions>
      </trkpt>
      <trkpt lat="59.989125949799" lon="15.831364503133">
        <ele>84.4</ele>
        <time>2015-04-24T19:06:50Z</time>
        <extensions><gpxtpx:TrackPointExtension><gpxtpx:hr>160</gpxtpx:hr></gpxtpx:TrackPointExtension></extensions>
      </trkpt>
      <trkpt lat="59.989214043568" lon="15.831121428033">
        <ele>84.4</ele>
        <time>2015-04-24T19:06:56Z</time>
        <extensions><gpxtpx:TrackPointExtension><gpxtpx:hr>161</gpxtpx:hr></gpxtpx:TrackPointExtension></extensions>
      </trkpt>
      <trkpt lat="59.989300125681" lon="15.830890171412">
        <ele>84.6</ele>
        <time>2015-04-24T19:07:02Z</time>
        <extensions><gpxtpx:TrackPointExtension><gpxtpx:hr>161</gpxtpx:hr></gpxtpx:TrackPointExtension></extensions>
      </trkpt>
      <trkpt lat="59.989380172826" lon="15.830712810408">
        <ele>85</ele>
        <time>2015-04-24T19:07:07Z</time>
        <extensions><gpxtpx:TrackPointExtension><gpxtpx:hr>161</gpxtpx:hr></gpxtpx:TrackPointExtension></extensions>
      </trkpt>
      <trkpt lat="59.989462231627" lon="15.830501251252">
        <ele>85.4</ele>
        <time>2015-04-24T19:07:12Z</time>
        <extensions><gpxtpx:TrackPointExtension><gpxtpx:hr>161</gpxtpx:hr></gpxtpx:TrackPointExtension></extensions>
      </trkpt>
      <trkpt lat="59.989459800876" lon="15.830036139621">
        <ele>85.8</ele>
        <time>2015-04-24T19:07:21Z</time>
        <extensions><gpxtpx:TrackPointExtension><gpxtpx:hr>163</gpxtpx:hr></gpxtpx:TrackPointExtension></extensions>
      </trkpt>
      <trkpt lat="59.989436331556" lon="15.829996241777">
        <ele>85.8</ele>
        <time>2015-04-24T19:07:22Z</time>
        <extensions><gpxtpx:TrackPointExtension><gpxtpx:hr>163</gpxtpx:hr></gpxtpx:TrackPointExtension></extensions>
      </trkpt>
      <trkpt lat="59.98939492497" lon="15.829926252912">
        <ele>86</ele>
        <time>2015-04-24T19:07:24Z</time>
        <extensions><gpxtpx:TrackPointExtension><gpxtpx:hr>163</gpxtpx:hr></gpxtpx:TrackPointExtension></extensions>
      </trkpt>
      <trkpt lat="59.989334156195" lon="15.82983757241">
        <ele>86.4</ele>
        <time>2015-04-24T19:07:27Z</time>
        <extensions><gpxtpx:TrackPointExtension><gpxtpx:hr>164</gpxtpx:hr></gpxtpx:TrackPointExtension></extensions>
      </trkpt>
      <trkpt lat="59.989212618645" lon="15.829645878357">
        <ele>86.8</ele>
        <time>2015-04-24T19:07:33Z</time>
        <extensions><gpxtpx:TrackPointExtension><gpxtpx:hr>164</gpxtpx:hr></gpxtpx:TrackPointExtension></extensions>
      </trkpt>
      <trkpt lat="59.98901941585" lon="15.829464074946">
        <ele>86.4</ele>
        <time>2015-04-24T19:07:41Z</time>
        <extensions><gpxtpx:TrackPointExtension><gpxtpx:hr>163</gpxtpx:hr></gpxtpx:TrackPointExtension></extensions>
      </trkpt>
      <trkpt lat="59.988834762593" lon="15.829316721144">
        <ele>85.8</ele>
        <time>2015-04-24T19:07:48Z</time>
        <extensions><gpxtpx:TrackPointExtension><gpxtpx:hr>163</gpxtpx:hr></gpxtpx:TrackPointExtension></extensions>
      </trkpt>
      <trkpt lat="59.98878556084" lon="15.829274141092">
        <ele>85.4</ele>
        <time>2015-04-24T19:07:50Z</time>
        <extensions><gpxtpx:TrackPointExtension><gpxtpx:hr>163</gpxtpx:hr></gpxtpx:TrackPointExtension></extensions>
      </trkpt>
      <trkpt lat="59.988725546436" lon="15.829165930763">
        <ele>84.6</ele>
        <time>2015-04-24T19:07:53Z</time>
        <extensions><gpxtpx:TrackPointExtension><gpxtpx:hr>162</gpxtpx:hr></gpxtpx:TrackPointExtension></extensions>
      </trkpt>
      <trkpt lat="59.988683134022" lon="15.829083285229">
        <ele>84.2</ele>
        <time>2015-04-24T19:07:55Z</time>
        <extensions><gpxtpx:TrackPointExtension><gpxtpx:hr>162</gpxtpx:hr></gpxtpx:TrackPointExtension></extensions>
      </trkpt>
      <trkpt lat="59.988590178751" lon="15.828811879307">
        <ele>83.8</ele>
        <time>2015-04-24T19:08:01Z</time>
        <extensions><gpxtpx:TrackPointExtension><gpxtpx:hr>161</gpxtpx:hr></gpxtpx:TrackPointExtension></extensions>
      </trkpt>
      <trkpt lat="59.98856595506" lon="15.828711464145">
        <ele>83.6</ele>
        <time>2015-04-24T19:08:03Z</time>
        <extensions><gpxtpx:TrackPointExtension><gpxtpx:hr>162</gpxtpx:hr></gpxtpx:TrackPointExtension></extensions>
      </trkpt>
      <trkpt lat="59.988518681144" lon="15.828534270779">
        <ele>83.4</ele>
        <time>2015-04-24T19:08:07Z</time>
        <extensions><gpxtpx:TrackPointExtension><gpxtpx:hr>162</gpxtpx:hr></gpxtpx:TrackPointExtension></extensions>
      </trkpt>
      <trkpt lat="59.988456319808" lon="15.828190445241">
        <ele>82.6</ele>
        <time>2015-04-24T19:08:14Z</time>
        <extensions><gpxtpx:TrackPointExtension><gpxtpx:hr>162</gpxtpx:hr></gpxtpx:TrackPointExtension></extensions>
      </trkpt>
      <trkpt lat="59.988447351175" lon="15.828136717262">
        <ele>82.2</ele>
        <time>2015-04-24T19:08:15Z</time>
        <extensions><gpxtpx:TrackPointExtension><gpxtpx:hr>162</gpxtpx:hr></gpxtpx:TrackPointExtension></extensions>
      </trkpt>
      <trkpt lat="59.988385828029" lon="15.82802959658">
        <ele>81.6</ele>
        <time>2015-04-24T19:08:19Z</time>
        <extensions><gpxtpx:TrackPointExtension><gpxtpx:hr>161</gpxtpx:hr></gpxtpx:TrackPointExtension></extensions>
      </trkpt>
      <trkpt lat="59.988230595241" lon="15.828021801413">
        <ele>81.2</ele>
        <time>2015-04-24T19:08:24Z</time>
        <extensions><gpxtpx:TrackPointExtension><gpxtpx:hr>161</gpxtpx:hr></gpxtpx:TrackPointExtension></extensions>
      </trkpt>
      <trkpt lat="59.988202515876" lon="15.828021633775">
        <ele>81</ele>
        <time>2015-04-24T19:08:25Z</time>
        <extensions><gpxtpx:TrackPointExtension><gpxtpx:hr>161</gpxtpx:hr></gpxtpx:TrackPointExtension></extensions>
      </trkpt>
      <trkpt lat="59.988002607561" lon="15.82802289106">
        <ele>81.6</ele>
        <time>2015-04-24T19:08:32Z</time>
        <extensions><gpxtpx:TrackPointExtension><gpxtpx:hr>163</gpxtpx:hr></gpxtpx:TrackPointExtension></extensions>
      </trkpt>
      <trkpt lat="59.987880734735" lon="15.82800780364">
        <ele>81.8</ele>
        <time>2015-04-24T19:08:36Z</time>
        <extensions><gpxtpx:TrackPointExtension><gpxtpx:hr>164</gpxtpx:hr></gpxtpx:TrackPointExtension></extensions>
      </trkpt>
      <trkpt lat="59.987697757858" lon="15.827963882484">
        <ele>81.8</ele>
        <time>2015-04-24T19:08:42Z</time>
        <extensions><gpxtpx:TrackPointExtension><gpxtpx:hr>165</gpxtpx:hr></gpxtpx:TrackPointExtension></extensions>
      </trkpt>
      <trkpt lat="59.987527521469" lon="15.827906634107">
        <ele>82</ele>
        <time>2015-04-24T19:08:47Z</time>
        <extensions><gpxtpx:TrackPointExtension><gpxtpx:hr>166</gpxtpx:hr></gpxtpx:TrackPointExtension></extensions>
      </trkpt>
      <trkpt lat="59.987325685317" lon="15.827821976917">
        <ele>81.8</ele>
        <time>2015-04-24T19:08:53Z</time>
        <extensions><gpxtpx:TrackPointExtension><gpxtpx:hr>167</gpxtpx:hr></gpxtpx:TrackPointExtension></extensions>
      </trkpt>
      <trkpt lat="59.987166680674" lon="15.827773361897">
        <ele>81.8</ele>
        <time>2015-04-24T19:08:59Z</time>
        <extensions><gpxtpx:TrackPointExtension><gpxtpx:hr>168</gpxtpx:hr></gpxtpx:TrackPointExtension></extensions>
      </trkpt>
      <trkpt lat="59.987009017135" lon="15.827689459078">
        <ele>81.8</ele>
        <time>2015-04-24T19:09:05Z</time>
        <extensions><gpxtpx:TrackPointExtension><gpxtpx:hr>169</gpxtpx:hr></gpxtpx:TrackPointExtension></extensions>
      </trkpt>
      <trkpt lat="59.986833081054" lon="15.827629025579">
        <ele>81.6</ele>
        <time>2015-04-24T19:09:11Z</time>
        <extensions><gpxtpx:TrackPointExtension><gpxtpx:hr>170</gpxtpx:hr></gpxtpx:TrackPointExtension></extensions>
      </trkpt>
      <trkpt lat="59.986650439453" lon="15.827567418614">
        <ele>81.6</ele>
        <time>2015-04-24T19:09:17Z</time>
        <extensions><gpxtpx:TrackPointExtension><gpxtpx:hr>170</gpxtpx:hr></gpxtpx:TrackPointExtension></extensions>
      </trkpt>
      <trkpt lat="59.986488501145" lon="15.827522743087">
        <ele>82.2</ele>
        <time>2015-04-24T19:09:22Z</time>
        <extensions><gpxtpx:TrackPointExtension><gpxtpx:hr>170</gpxtpx:hr></gpxtpx:TrackPointExtension></extensions>
      </trkpt>
      <trkpt lat="59.986415913891" lon="15.827499273767">
        <ele>82.2</ele>
        <time>2015-04-24T19:09:24Z</time>
        <extensions><gpxtpx:TrackPointExtension><gpxtpx:hr>170</gpxtpx:hr></gpxtpx:TrackPointExtension></extensions>
      </trkpt>
      <trkpt lat="59.986212485178" lon="15.827433475852">
        <ele>82.4</ele>
        <time>2015-04-24T19:09:30Z</time>
        <extensions><gpxtpx:TrackPointExtension><gpxtpx:hr>169</gpxtpx:hr></gpxtpx:TrackPointExtension></extensions>
      </trkpt>
      <trkpt lat="59.986146184349" lon="15.827401708451">
        <ele>82.4</ele>
        <time>2015-04-24T19:09:32Z</time>
        <extensions><gpxtpx:TrackPointExtension><gpxtpx:hr>170</gpxtpx:hr></gpxtpx:TrackPointExtension></extensions>
      </trkpt>
      <trkpt lat="59.985970415906" lon="15.827320404021">
        <ele>82</ele>
        <time>2015-04-24T19:09:39Z</time>
        <extensions><gpxtpx:TrackPointExtension><gpxtpx:hr>169</gpxtpx:hr></gpxtpx:TrackPointExtension></extensions>
      </trkpt>
      <trkpt lat="59.985886177811" lon="15.827282685471">
        <ele>80.8</ele>
        <time>2015-04-24T19:09:42Z</time>
        <extensions><gpxtpx:TrackPointExtension><gpxtpx:hr>168</gpxtpx:hr></gpxtpx:TrackPointExtension></extensions>
      </trkpt>
      <trkpt lat="59.985831946918" lon="15.827268184784">
        <ele>80</ele>
        <time>2015-04-24T19:09:44Z</time>
        <extensions><gpxtpx:TrackPointExtension><gpxtpx:hr>168</gpxtpx:hr></gpxtpx:TrackPointExtension></extensions>
      </trkpt>
      <trkpt lat="59.985803616096" lon="15.827253348821">
        <ele>79.6</ele>
        <time>2015-04-24T19:09:45Z</time>
        <extensions><gpxtpx:TrackPointExtension><gpxtpx:hr>167</gpxtpx:hr></gpxtpx:TrackPointExtension></extensions>
      </trkpt>
      <trkpt lat="59.985665398565" lon="15.827220575592">
        <ele>78.2</ele>
        <time>2015-04-24T19:09:50Z</time>
        <extensions><gpxtpx:TrackPointExtension><gpxtpx:hr>166</gpxtpx:hr></gpxtpx:TrackPointExtension></extensions>
      </trkpt>
      <trkpt lat="59.985517793306" lon="15.827232561709">
        <ele>77.8</ele>
        <time>2015-04-24T19:09:56Z</time>
        <extensions><gpxtpx:TrackPointExtension><gpxtpx:hr>166</gpxtpx:hr></gpxtpx:TrackPointExtension></extensions>
      </trkpt>
      <trkpt lat="59.98540094962" lon="15.827221749058">
        <ele>77.2</ele>
        <time>2015-04-24T19:10:00Z</time>
        <extensions><gpxtpx:TrackPointExtension><gpxtpx:hr>165</gpxtpx:hr></gpxtpx:TrackPointExtension></extensions>
      </trkpt>
      <trkpt lat="59.985313107308" lon="15.827211858416">
        <ele>76.8</ele>
        <time>2015-04-24T19:10:03Z</time>
        <extensions><gpxtpx:TrackPointExtension><gpxtpx:hr>165</gpxtpx:hr></gpxtpx:TrackPointExtension></extensions>
      </trkpt>
      <trkpt lat="59.985218559476" lon="15.827201381041">
        <ele>76.2</ele>
        <time>2015-04-24T19:10:06Z</time>
        <extensions><gpxtpx:TrackPointExtension><gpxtpx:hr>165</gpxtpx:hr></gpxtpx:TrackPointExtension></extensions>
      </trkpt>
      <trkpt lat="59.985119233961" lon="15.827183611413">
        <ele>75.8</ele>
        <time>2015-04-24T19:10:09Z</time>
        <extensions><gpxtpx:TrackPointExtension><gpxtpx:hr>165</gpxtpx:hr></gpxtpx:TrackPointExtension></extensions>
      </trkpt>
      <trkpt lat="59.985000127162" lon="15.827180007196">
        <ele>75</ele>
        <time>2015-04-24T19:10:13Z</time>
        <extensions><gpxtpx:TrackPointExtension><gpxtpx:hr>164</gpxtpx:hr></gpxtpx:TrackPointExtension></extensions>
      </trkpt>
      <trkpt lat="59.984945141898" lon="15.827223509257">
        <ele>74.8</ele>
        <time>2015-04-24T19:10:15Z</time>
        <extensions><gpxtpx:TrackPointExtension><gpxtpx:hr>163</gpxtpx:hr></gpxtpx:TrackPointExtension></extensions>
      </trkpt>
      <trkpt lat="59.984924438605" lon="15.82725175626">
        <ele>74.6</ele>
        <time>2015-04-24T19:10:16Z</time>
        <extensions><gpxtpx:TrackPointExtension><gpxtpx:hr>163</gpxtpx:hr></gpxtpx:TrackPointExtension></extensions>
      </trkpt>
      <trkpt lat="59.984797788096" lon="15.827537076136">
        <ele>74.4</ele>
        <time>2015-04-24T19:10:23Z</time>
        <extensions><gpxtpx:TrackPointExtension><gpxtpx:hr>164</gpxtpx:hr></gpxtpx:TrackPointExtension></extensions>
      </trkpt>
      <trkpt lat="59.984784796151" lon="15.827587116079">
        <ele>74.4</ele>
        <time>2015-04-24T19:10:25Z</time>
        <extensions><gpxtpx:TrackPointExtension><gpxtpx:hr>164</gpxtpx:hr></gpxtpx:TrackPointExtension></extensions>
      </trkpt>
    </trkseg>
  </trk>
</gpx>